PWSweather.com
Personal Weather Stations
Station Observations
ALOHA852
Aloha, OR

Aloha, OR

Lat: 45.476667, Lon: -122.894722

Elevation: 278

Station Type: Ambient Weather

Latest ConditionsUpdated 7:32:00 AM PDT Wednesday, Aug 20, 2014
Currently Today's Max Today's Min Today's Average
Temperature 61.7°F16.5°C 63.5°F17.5°C 59.5°F15.3°C 61.5°F16.4°C
Dew Point 55.1°F12.8°C 56.8°F13.8°C 53.0°F11.7°C 54.9°F12.7°C
Winds 1.8 mph S2.9 kmh S 4.7 mph SW7.6 kmh SW - 1.8 mph 2.9 kmh
Wind Gusts 3.1 mph5.0 kmh 6.0 mph9.7 kmh - -
Humidity 79% 88% 73% 79%
Pressure 29.56 in1001.0 mb 29.57 in1001.4 mb 29.48 in998.3 mb -
Hour Temp Dew Point Humidity Winds Wind Gusts Pressure Precip Precip Rate Daily Precip Total
07:32 AM 61.7°F16.5°C 55.1°F12.8°C 79% 1.8 mph S2.9 kmh S 3.1 mph5.0 kmh 29.56 in1001.0 mb 0.00 in0.0 mm 0.00 in/hr0.0 mm/hr 0.00 in0.0 mm
07:31 AM 61.5°F16.4°C 55.0°F12.8°C 79% 1.5 mph S2.4 kmh S 3.1 mph5.0 kmh 29.56 in1001.0 mb 0.00 in0.0 mm 0.00 in/hr0.0 mm/hr 0.00 in0.0 mm
07:30 AM 62.1°F16.7°C 55.1°F12.8°C 78% 1.2 mph S1.9 kmh S 3.1 mph5.0 kmh 29.56 in1001.0 mb 0.00 in0.0 mm 0.00 in/hr0.0 mm/hr 0.00 in0.0 mm
07:29 AM 61.5°F16.4°C 54.6°F12.6°C 78% 0.9 mph S1.4 kmh S 3.1 mph5.0 kmh 29.56 in1001.0 mb 0.00 in0.0 mm 0.00 in/hr0.0 mm/hr 0.00 in0.0 mm
07:28 AM 61.9°F16.6°C 55.3°F12.9°C 79% 0.6 mph S1.0 kmh S 3.1 mph5.0 kmh 29.57 in1001.4 mb 0.00 in0.0 mm 0.00 in/hr0.0 mm/hr 0.00 in0.0 mm
07:27 AM 61.5°F16.4°C 55.0°F12.8°C 79% 0.3 mph S0.5 kmh S 3.1 mph5.0 kmh 29.56 in1001.0 mb 0.00 in0.0 mm 0.00 in/hr0.0 mm/hr 0.00 in0.0 mm
07:26 AM 61.9°F16.6°C 55.3°F12.9°C 79% Calm Calm -- 29.56 in1001.0 mb 0.00 in0.0 mm 0.00 in/hr0.0 mm/hr 0.00 in0.0 mm
07:25 AM 61.7°F16.5°C 55.1°F12.8°C 79% Calm Calm -- 29.56 in1001.0 mb 0.00 in0.0 mm 0.00 in/hr0.0 mm/hr 0.00 in0.0 mm
07:24 AM 61.5°F16.4°C 55.0°F12.8°C 79% Calm Calm 1.6 mph2.6 kmh 29.56 in1001.0 mb 0.00 in0.0 mm 0.00 in/hr0.0 mm/hr 0.00 in0.0 mm
07:23 AM 61.5°F16.4°C 55.0°F12.8°C 79% 0.2 mph SSW0.3 kmh SSW 2.2 mph3.5 kmh 29.56 in1001.0 mb 0.00 in0.0 mm 0.00 in/hr0.0 mm/hr 0.00 in0.0 mm
07:22 AM 61.3°F16.3°C 54.8°F12.7°C 79% 0.4 mph SSW0.6 kmh SSW 2.2 mph3.5 kmh 29.56 in1001.0 mb 0.00 in0.0 mm 0.00 in/hr0.0 mm/hr 0.00 in0.0 mm
07:21 AM 61.5°F16.4°C 55.0°F12.8°C 79% 0.6 mph SSW1.0 kmh SSW 2.2 mph3.5 kmh 29.56 in1001.0 mb 0.00 in0.0 mm 0.00 in/hr0.0 mm/hr 0.00 in0.0 mm
07:20 AM 61.7°F16.5°C 55.1°F12.8°C 79% 0.9 mph SSW1.4 kmh SSW 2.2 mph3.5 kmh 29.56 in1001.0 mb 0.00 in0.0 mm 0.00 in/hr0.0 mm/hr 0.00 in0.0 mm
07:19 AM 61.7°F16.5°C 55.1°F12.8°C 79% 1.1 mph SSW1.8 kmh SSW 2.2 mph3.5 kmh 29.56 in1001.0 mb 0.00 in0.0 mm 0.00 in/hr0.0 mm/hr 0.00 in0.0 mm
07:18 AM 61.7°F16.5°C 55.1°F12.8°C 79% 1.4 mph SW2.3 kmh SW 3.1 mph5.0 kmh 29.56 in1001.0 mb 0.00 in0.0 mm 0.00 in/hr0.0 mm/hr 0.00 in0.0 mm
07:17 AM 61.7°F16.5°C 55.1°F12.8°C 79% 1.7 mph SW2.7 kmh SW 3.1 mph5.0 kmh 29.56 in1001.0 mb 0.00 in0.0 mm 0.00 in/hr0.0 mm/hr 0.00 in0.0 mm
07:16 AM 61.5°F16.4°C 55.0°F12.8°C 79% 1.9 mph SW3.1 kmh SW 3.1 mph5.0 kmh 29.56 in1001.0 mb 0.00 in0.0 mm 0.00 in/hr0.0 mm/hr 0.00 in0.0 mm
07:15 AM 61.5°F16.4°C 55.0°F12.8°C 79% 2.1 mph SW3.4 kmh SW 3.1 mph5.0 kmh 29.56 in1001.0 mb 0.00 in0.0 mm 0.00 in/hr0.0 mm/hr 0.00 in0.0 mm
07:14 AM 61.7°F16.5°C 55.1°F12.8°C 79% 2.4 mph SW3.9 kmh SW 3.1 mph5.0 kmh 29.56 in1001.0 mb 0.00 in0.0 mm 0.00 in/hr0.0 mm/hr 0.00 in0.0 mm
07:13 AM 61.7°F16.5°C 55.1°F12.8°C 79% 2.5 mph WSW4.0 kmh WSW 3.1 mph5.0 kmh 29.56 in1001.0 mb 0.00 in0.0 mm 0.00 in/hr0.0 mm/hr 0.00 in0.0 mm
07:12 AM 61.7°F16.5°C 55.1°F12.8°C 79% 2.5 mph WSW4.0 kmh WSW 3.1 mph5.0 kmh 29.56 in1001.0 mb 0.00 in0.0 mm 0.00 in/hr0.0 mm/hr 0.00 in0.0 mm
07:11 AM 61.5°F16.4°C 55.0°F12.8°C 79% 2.5 mph WSW4.0 kmh WSW 3.1 mph5.0 kmh 29.56 in1001.0 mb 0.00 in0.0 mm 0.00 in/hr0.0 mm/hr 0.00 in0.0 mm
07:10 AM 61.7°F16.5°C 55.1°F12.8°C 79% 2.5 mph WSW4.0 kmh WSW 3.1 mph5.0 kmh 29.56 in1001.0 mb 0.00 in0.0 mm 0.00 in/hr0.0 mm/hr 0.00 in0.0 mm
07:09 AM 61.7°F16.5°C 55.1°F12.8°C 79% 2.6 mph WSW4.2 kmh WSW 3.8 mph6.1 kmh 29.56 in1001.0 mb 0.00 in0.0 mm 0.00 in/hr0.0 mm/hr 0.00 in0.0 mm
07:08 AM 62.2°F16.8°C 55.7°F13.2°C 79% 2.6 mph SW4.2 kmh SW 3.8 mph6.1 kmh 29.56 in1001.0 mb 0.00 in0.0 mm 0.00 in/hr0.0 mm/hr 0.00 in0.0 mm
07:07 AM 61.5°F16.4°C 55.0°F12.8°C 79% 2.6 mph SW4.2 kmh SW 3.8 mph6.1 kmh 29.56 in1001.0 mb 0.00 in0.0 mm 0.00 in/hr0.0 mm/hr 0.00 in0.0 mm
07:06 AM 61.5°F16.4°C 55.0°F12.8°C 79% 2.7 mph SW4.3 kmh SW 3.8 mph6.1 kmh 29.56 in1001.0 mb 0.00 in0.0 mm 0.00 in/hr0.0 mm/hr 0.00 in0.0 mm
07:05 AM 61.7°F16.5°C 55.1°F12.8°C 79% 2.8 mph SW4.5 kmh SW 3.8 mph6.1 kmh 29.56 in1001.0 mb 0.00 in0.0 mm 0.00 in/hr0.0 mm/hr 0.00 in0.0 mm
07:04 AM 61.3°F16.3°C 54.8°F12.7°C 79% 2.8 mph SW4.5 kmh SW 3.8 mph6.1 kmh 29.56 in1001.0 mb 0.00 in0.0 mm 0.00 in/hr0.0 mm/hr 0.00 in0.0 mm
07:03 AM 61.5°F16.4°C 55.0°F12.8°C 79% 2.9 mph SSW4.7 kmh SSW 3.8 mph6.1 kmh 29.56 in1001.0 mb 0.00 in0.0 mm 0.00 in/hr0.0 mm/hr 0.00 in0.0 mm
07:02 AM 61.7°F16.5°C 55.1°F12.8°C 79% 3.0 mph SSW4.8 kmh SSW 3.8 mph6.1 kmh 29.56 in1001.0 mb 0.00 in0.0 mm 0.00 in/hr0.0 mm/hr 0.00 in0.0 mm
07:01 AM 61.5°F16.4°C 55.0°F12.8°C 79% 3.0 mph SSW4.8 kmh SSW 3.8 mph6.1 kmh 29.56 in1001.0 mb 0.00 in0.0 mm 0.00 in/hr0.0 mm/hr 0.00 in0.0 mm
07:00 AM 61.5°F16.4°C 55.0°F12.8°C 79% 3.1 mph SSW5.0 kmh SSW 3.8 mph6.1 kmh 29.56 in1001.0 mb 0.00 in0.0 mm 0.00 in/hr0.0 mm/hr 0.00 in0.0 mm
06:59 AM 61.9°F16.6°C 55.3°F12.9°C 79% 3.0 mph SSW4.8 kmh SSW 3.8 mph6.1 kmh 29.55 in1000.7 mb 0.00 in0.0 mm 0.00 in/hr0.0 mm/hr 0.00 in0.0 mm
06:58 AM 61.3°F16.3°C 54.4°F12.4°C 78% 2.9 mph S4.7 kmh S 3.8 mph6.1 kmh 29.56 in1001.0 mb 0.00 in0.0 mm 0.00 in/hr0.0 mm/hr 0.00 in0.0 mm
06:57 AM 61.0°F16.1°C 54.4°F12.4°C 79% 2.8 mph S4.5 kmh S 3.8 mph6.1 kmh 29.56 in1001.0 mb 0.00 in0.0 mm 0.00 in/hr0.0 mm/hr 0.00 in0.0 mm
06:56 AM 61.3°F16.3°C 54.8°F12.7°C 79% 2.9 mph SSW4.7 kmh SSW 3.8 mph6.1 kmh 29.56 in1001.0 mb 0.00 in0.0 mm 0.00 in/hr0.0 mm/hr 0.00 in0.0 mm
06:55 AM 61.5°F16.4°C 55.0°F12.8°C 79% 2.8 mph SSW4.5 kmh SSW 3.8 mph6.1 kmh 29.55 in1000.7 mb 0.00 in0.0 mm 0.00 in/hr0.0 mm/hr 0.00 in0.0 mm
06:54 AM 61.5°F16.4°C 54.6°F12.6°C 78% 2.7 mph SSW4.3 kmh SSW 3.8 mph6.1 kmh 29.56 in1001.0 mb 0.00 in0.0 mm 0.00 in/hr0.0 mm/hr 0.00 in0.0 mm
06:53 AM 61.7°F16.5°C 55.1°F12.8°C 79% 2.6 mph SSW4.2 kmh SSW 3.8 mph6.1 kmh 29.55 in1000.7 mb 0.00 in0.0 mm 0.00 in/hr0.0 mm/hr 0.00 in0.0 mm
06:52 AM 61.3°F16.3°C 54.8°F12.7°C 79% 2.5 mph SSW4.0 kmh SSW 3.1 mph5.0 kmh 29.55 in1000.7 mb 0.00 in0.0 mm 0.00 in/hr0.0 mm/hr 0.00 in0.0 mm
06:51 AM 61.3°F16.3°C 54.4°F12.4°C 78% 2.2 mph SSW3.5 kmh SSW 3.1 mph5.0 kmh 29.55 in1000.7 mb 0.00 in0.0 mm 0.00 in/hr0.0 mm/hr 0.00 in0.0 mm
06:50 AM 61.5°F16.4°C 54.6°F12.6°C 78% 2.1 mph SSW3.4 kmh SSW 3.1 mph5.0 kmh 29.55 in1000.7 mb 0.00 in0.0 mm 0.00 in/hr0.0 mm/hr 0.00 in0.0 mm
06:49 AM 61.5°F16.4°C 55.0°F12.8°C 79% 2.0 mph SSW3.2 kmh SSW 3.1 mph5.0 kmh 29.55 in1000.7 mb 0.00 in0.0 mm 0.00 in/hr0.0 mm/hr 0.00 in0.0 mm
06:48 AM 61.3°F16.3°C 54.8°F12.7°C 79% 1.9 mph SW3.1 kmh SW 3.1 mph5.0 kmh 29.55 in1000.7 mb 0.00 in0.0 mm 0.00 in/hr0.0 mm/hr 0.00 in0.0 mm
06:47 AM 61.3°F16.3°C 54.8°F12.7°C 79% 2.0 mph SW3.2 kmh SW 3.1 mph5.0 kmh 29.55 in1000.7 mb 0.00 in0.0 mm 0.00 in/hr0.0 mm/hr 0.00 in0.0 mm
06:46 AM 61.5°F16.4°C 54.6°F12.6°C 78% 1.9 mph SW3.1 kmh SW 3.1 mph5.0 kmh 29.55 in1000.7 mb 0.00 in0.0 mm 0.00 in/hr0.0 mm/hr 0.00 in0.0 mm
06:45 AM 61.7°F16.5°C 55.1°F12.8°C 79% 1.6 mph SW2.6 kmh SW 3.1 mph5.0 kmh 29.55 in1000.7 mb 0.00 in0.0 mm 0.00 in/hr0.0 mm/hr 0.00 in0.0 mm
06:44 AM 61.3°F16.3°C 54.8°F12.7°C 79% 1.4 mph SSW2.3 kmh SSW 3.1 mph5.0 kmh 29.55 in1000.7 mb 0.00 in0.0 mm 0.00 in/hr0.0 mm/hr 0.00 in0.0 mm
06:43 AM 61.7°F16.5°C 54.8°F12.7°C 78% 1.2 mph SSW1.9 kmh SSW 3.1 mph5.0 kmh 29.55 in1000.7 mb 0.00 in0.0 mm 0.00 in/hr0.0 mm/hr 0.00 in0.0 mm
06:42 AM 61.3°F16.3°C 54.4°F12.4°C 78% 1.1 mph SSW1.8 kmh SSW 3.1 mph5.0 kmh 29.55 in1000.7 mb 0.00 in0.0 mm 0.00 in/hr0.0 mm/hr 0.00 in0.0 mm
06:41 AM 61.5°F16.4°C 54.6°F12.6°C 78% 1.0 mph SSW1.6 kmh SSW 3.1 mph5.0 kmh 29.55 in1000.7 mb 0.00 in0.0 mm 0.00 in/hr0.0 mm/hr 0.00 in0.0 mm
06:40 AM 61.7°F16.5°C 54.8°F12.7°C 78% 0.9 mph SW1.4 kmh SW 3.1 mph5.0 kmh 29.55 in1000.7 mb 0.00 in0.0 mm 0.00 in/hr0.0 mm/hr 0.00 in0.0 mm
06:39 AM 61.2°F16.2°C 54.3°F12.4°C 78% 0.7 mph SW1.1 kmh SW 3.1 mph5.0 kmh 29.55 in1000.7 mb 0.00 in0.0 mm 0.00 in/hr0.0 mm/hr 0.00 in0.0 mm
06:38 AM 61.3°F16.3°C 54.4°F12.4°C 78% 0.5 mph SW0.8 kmh SW 3.1 mph5.0 kmh 29.55 in1000.7 mb 0.00 in0.0 mm 0.00 in/hr0.0 mm/hr 0.00 in0.0 mm
06:37 AM 61.3°F16.3°C 54.4°F12.4°C 78% 0.3 mph SSW0.5 kmh SSW 3.1 mph5.0 kmh 29.55 in1000.7 mb 0.00 in0.0 mm 0.00 in/hr0.0 mm/hr 0.00 in0.0 mm
06:36 AM 61.3°F16.3°C 54.4°F12.4°C 78% Calm Calm 1.6 mph2.6 kmh 29.55 in1000.7 mb 0.00 in0.0 mm 0.00 in/hr0.0 mm/hr 0.00 in0.0 mm
06:35 AM 61.0°F16.1°C 54.1°F12.3°C 78% Calm Calm -- 29.55 in1000.7 mb 0.00 in0.0 mm 0.00 in/hr0.0 mm/hr 0.00 in0.0 mm
06:34 AM 61.2°F16.2°C 54.3°F12.4°C 78% Calm Calm -- 29.55 in1000.7 mb 0.00 in0.0 mm 0.00 in/hr0.0 mm/hr 0.00 in0.0 mm
06:33 AM 61.2°F16.2°C 54.3°F12.4°C 78% Calm Calm -- 29.55 in1000.7 mb 0.00 in0.0 mm 0.00 in/hr0.0 mm/hr 0.00 in0.0 mm
06:32 AM 61.3°F16.3°C 54.4°F12.4°C 78% Calm Calm -- 29.55 in1000.7 mb 0.00 in0.0 mm 0.00 in/hr0.0 mm/hr 0.00 in0.0 mm
06:31 AM 61.3°F16.3°C 54.4°F12.4°C 78% Calm Calm -- 29.55 in1000.7 mb 0.00 in0.0 mm 0.00 in/hr0.0 mm/hr 0.00 in0.0 mm
06:30 AM 61.2°F16.2°C 54.3°F12.4°C 78% 0.1 mph W0.2 kmh W 2.2 mph3.5 kmh 29.55 in1000.7 mb 0.00 in0.0 mm 0.00 in/hr0.0 mm/hr 0.00 in0.0 mm
06:29 AM 61.7°F16.5°C 54.8°F12.7°C 78% 0.4 mph WSW0.6 kmh WSW 2.2 mph3.5 kmh 29.55 in1000.7 mb 0.00 in0.0 mm 0.00 in/hr0.0 mm/hr 0.00 in0.0 mm
06:28 AM 61.3°F16.3°C 54.4°F12.4°C 78% 0.6 mph SW1.0 kmh SW 2.2 mph3.5 kmh 29.55 in1000.7 mb 0.00 in0.0 mm 0.00 in/hr0.0 mm/hr 0.00 in0.0 mm
06:27 AM 61.3°F16.3°C 54.4°F12.4°C 78% 0.8 mph SW1.3 kmh SW 2.2 mph3.5 kmh 29.55 in1000.7 mb 0.00 in0.0 mm 0.00 in/hr0.0 mm/hr 0.00 in0.0 mm
06:26 AM 61.7°F16.5°C 54.8°F12.7°C 78% 1.1 mph SW1.8 kmh SW 3.1 mph5.0 kmh 29.55 in1000.7 mb 0.00 in0.0 mm 0.00 in/hr0.0 mm/hr 0.00 in0.0 mm
06:25 AM 61.3°F16.3°C 54.4°F12.4°C 78% 1.3 mph SW2.1 kmh SW 3.1 mph5.0 kmh 29.55 in1000.7 mb 0.00 in0.0 mm 0.00 in/hr0.0 mm/hr 0.00 in0.0 mm
06:24 AM 61.2°F16.2°C 54.3°F12.4°C 78% 1.6 mph SW2.6 kmh SW 3.1 mph5.0 kmh 29.55 in1000.7 mb 0.00 in0.0 mm 0.00 in/hr0.0 mm/hr 0.00 in0.0 mm
06:23 AM 61.5°F16.4°C 54.6°F12.6°C 78% 2.0 mph SW3.2 kmh SW 3.8 mph6.1 kmh 29.55 in1000.7 mb 0.00 in0.0 mm 0.00 in/hr0.0 mm/hr 0.00 in0.0 mm
06:22 AM 61.3°F16.3°C 54.4°F12.4°C 78% 2.3 mph SW3.7 kmh SW 3.8 mph6.1 kmh 29.55 in1000.7 mb 0.00 in0.0 mm 0.00 in/hr0.0 mm/hr 0.00 in0.0 mm
06:21 AM 61.5°F16.4°C 54.6°F12.6°C 78% 2.5 mph SW4.0 kmh SW 3.8 mph6.1 kmh 29.55 in1000.7 mb 0.00 in0.0 mm 0.00 in/hr0.0 mm/hr 0.00 in0.0 mm
06:20 AM 61.5°F16.4°C 54.6°F12.6°C 78% 2.6 mph SW4.2 kmh SW 3.8 mph6.1 kmh 29.54 in1000.3 mb 0.00 in0.0 mm 0.00 in/hr0.0 mm/hr 0.00 in0.0 mm
06:19 AM 61.3°F16.3°C 54.4°F12.4°C 78% 2.7 mph SW4.3 kmh SW 3.8 mph6.1 kmh 29.54 in1000.3 mb 0.00 in0.0 mm 0.00 in/hr0.0 mm/hr 0.00 in0.0 mm
06:18 AM 61.5°F16.4°C 54.6°F12.6°C 78% 2.7 mph SW4.3 kmh SW 3.8 mph6.1 kmh 29.54 in1000.3 mb 0.00 in0.0 mm 0.00 in/hr0.0 mm/hr 0.00 in0.0 mm
06:17 AM 61.5°F16.4°C 54.6°F12.6°C 78% 2.7 mph SW4.3 kmh SW 3.8 mph6.1 kmh 29.54 in1000.3 mb 0.00 in0.0 mm 0.00 in/hr0.0 mm/hr 0.00 in0.0 mm
06:16 AM 61.2°F16.2°C 54.3°F12.4°C 78% 2.5 mph SW4.0 kmh SW 3.8 mph6.1 kmh 29.54 in1000.3 mb 0.00 in0.0 mm 0.00 in/hr0.0 mm/hr 0.00 in0.0 mm
06:15 AM 61.3°F16.3°C 54.4°F12.4°C 78% 2.3 mph SW3.7 kmh SW 3.8 mph6.1 kmh 29.54 in1000.3 mb 0.00 in0.0 mm 0.00 in/hr0.0 mm/hr 0.00 in0.0 mm
06:14 AM 61.3°F16.3°C 54.4°F12.4°C 78% 2.1 mph SW3.4 kmh SW 3.8 mph6.1 kmh 29.54 in1000.3 mb 0.00 in0.0 mm 0.00 in/hr0.0 mm/hr 0.00 in0.0 mm
06:13 AM 61.5°F16.4°C 54.6°F12.6°C 78% 2.0 mph SW3.2 kmh SW 3.8 mph6.1 kmh 29.54 in1000.3 mb 0.00 in0.0 mm 0.00 in/hr0.0 mm/hr 0.00 in0.0 mm
06:12 AM 61.3°F16.3°C 54.4°F12.4°C 78% 2.0 mph SSW3.2 kmh SSW 3.1 mph5.0 kmh 29.54 in1000.3 mb 0.00 in0.0 mm 0.00 in/hr0.0 mm/hr 0.00 in0.0 mm
06:11 AM 61.3°F16.3°C 54.4°F12.4°C 78% 2.1 mph SW3.4 kmh SW 3.1 mph5.0 kmh 29.54 in1000.3 mb 0.00 in0.0 mm 0.00 in/hr0.0 mm/hr 0.00 in0.0 mm
06:10 AM 61.2°F16.2°C 54.3°F12.4°C 78% 2.1 mph SW3.4 kmh SW 3.1 mph5.0 kmh 29.54 in1000.3 mb 0.00 in0.0 mm 0.00 in/hr0.0 mm/hr 0.00 in0.0 mm
06:09 AM 61.3°F16.3°C 54.4°F12.4°C 78% 2.0 mph SW3.2 kmh SW 3.1 mph5.0 kmh 29.54 in1000.3 mb 0.00 in0.0 mm 0.00 in/hr0.0 mm/hr 0.00 in0.0 mm
06:08 AM 61.3°F16.3°C 54.4°F12.4°C 78% 1.8 mph SW2.9 kmh SW 3.1 mph5.0 kmh 29.54 in1000.3 mb 0.00 in0.0 mm 0.00 in/hr0.0 mm/hr 0.00 in0.0 mm
06:07 AM 61.3°F16.3°C 54.4°F12.4°C 78% 1.8 mph SW2.9 kmh SW 3.1 mph5.0 kmh 29.54 in1000.3 mb 0.00 in0.0 mm 0.00 in/hr0.0 mm/hr 0.00 in0.0 mm
06:06 AM 61.3°F16.3°C 54.4°F12.4°C 78% 1.9 mph SW3.1 kmh SW 3.1 mph5.0 kmh 29.54 in1000.3 mb 0.00 in0.0 mm 0.00 in/hr0.0 mm/hr 0.00 in0.0 mm
06:05 AM 61.3°F16.3°C 54.4°F12.4°C 78% 1.9 mph SW3.1 kmh SW 3.1 mph5.0 kmh 29.54 in1000.3 mb 0.00 in0.0 mm 0.00 in/hr0.0 mm/hr 0.00 in0.0 mm
06:04 AM 61.3°F16.3°C 54.4°F12.4°C 78% 1.9 mph SW3.1 kmh SW 3.1 mph5.0 kmh 29.54 in1000.3 mb 0.00 in0.0 mm 0.00 in/hr0.0 mm/hr 0.00 in0.0 mm
06:03 AM 61.5°F16.4°C 54.6°F12.6°C 78% 2.0 mph SW3.2 kmh SW 3.1 mph5.0 kmh 29.54 in1000.3 mb 0.00 in0.0 mm 0.00 in/hr0.0 mm/hr 0.00 in0.0 mm
06:02 AM 61.5°F16.4°C 54.6°F12.6°C 78% 2.1 mph SW3.4 kmh SW 3.1 mph5.0 kmh 29.54 in1000.3 mb 0.00 in0.0 mm 0.00 in/hr0.0 mm/hr 0.00 in0.0 mm
06:01 AM 61.3°F16.3°C 54.4°F12.4°C 78% 2.1 mph SW3.4 kmh SW 3.1 mph5.0 kmh 29.54 in1000.3 mb 0.00 in0.0 mm 0.00 in/hr0.0 mm/hr 0.00 in0.0 mm
06:00 AM 61.3°F16.3°C 54.4°F12.4°C 78% 2.1 mph WSW3.4 kmh WSW 3.8 mph6.1 kmh 29.54 in1000.3 mb 0.00 in0.0 mm 0.00 in/hr0.0 mm/hr 0.00 in0.0 mm
05:59 AM 61.2°F16.2°C 54.3°F12.4°C 78% 2.3 mph WSW3.7 kmh WSW 3.8 mph6.1 kmh 29.54 in1000.3 mb 0.00 in0.0 mm 0.00 in/hr0.0 mm/hr 0.00 in0.0 mm
05:58 AM 61.2°F16.2°C 54.3°F12.4°C 78% 2.5 mph WSW4.0 kmh WSW 4.5 mph7.2 kmh 29.54 in1000.3 mb 0.00 in0.0 mm 0.00 in/hr0.0 mm/hr 0.00 in0.0 mm
05:57 AM 61.2°F16.2°C 54.3°F12.4°C 78% 2.7 mph WSW4.3 kmh WSW 4.5 mph7.2 kmh 29.54 in1000.3 mb 0.00 in0.0 mm 0.00 in/hr0.0 mm/hr 0.00 in0.0 mm
05:56 AM 61.5°F16.4°C 54.6°F12.6°C 78% 2.9 mph WSW4.7 kmh WSW 4.5 mph7.2 kmh 29.53 in1000.0 mb 0.00 in0.0 mm 0.00 in/hr0.0 mm/hr 0.00 in0.0 mm
05:55 AM 61.3°F16.3°C 54.1°F12.3°C 77% 3.2 mph WSW5.1 kmh WSW 4.5 mph7.2 kmh 29.54 in1000.3 mb 0.00 in0.0 mm 0.00 in/hr0.0 mm/hr 0.00 in0.0 mm
05:54 AM 61.3°F16.3°C 54.4°F12.4°C 78% 3.4 mph WSW5.5 kmh WSW 4.5 mph7.2 kmh 29.54 in1000.3 mb 0.00 in0.0 mm 0.00 in/hr0.0 mm/hr 0.00 in0.0 mm
05:53 AM 61.3°F16.3°C 54.1°F12.3°C 77% 3.3 mph WSW5.3 kmh WSW 4.5 mph7.2 kmh 29.54 in1000.3 mb 0.00 in0.0 mm 0.00 in/hr0.0 mm/hr 0.00 in0.0 mm
05:52 AM 61.3°F16.3°C 54.1°F12.3°C 77% 3.0 mph WSW4.8 kmh WSW 4.5 mph7.2 kmh 29.54 in1000.3 mb 0.00 in0.0 mm 0.00 in/hr0.0 mm/hr 0.00 in0.0 mm
05:51 AM 61.5°F16.4°C 54.3°F12.4°C 77% 2.7 mph WSW4.3 kmh WSW 4.5 mph7.2 kmh 29.54 in1000.3 mb 0.00 in0.0 mm 0.00 in/hr0.0 mm/hr 0.00 in0.0 mm
05:50 AM 61.7°F16.5°C 54.4°F12.4°C 77% 2.4 mph WSW3.9 kmh WSW 4.5 mph7.2 kmh 29.54 in1000.3 mb 0.00 in0.0 mm 0.00 in/hr0.0 mm/hr 0.00 in0.0 mm
05:49 AM 61.3°F16.3°C 54.1°F12.3°C 77% 2.0 mph WSW3.2 kmh WSW 4.5 mph7.2 kmh 29.54 in1000.3 mb 0.00 in0.0 mm 0.00 in/hr0.0 mm/hr 0.00 in0.0 mm
05:48 AM 61.2°F16.2°C 53.9°F12.2°C 77% 1.7 mph WSW2.7 kmh WSW 4.5 mph7.2 kmh 29.54 in1000.3 mb 0.00 in0.0 mm 0.00 in/hr0.0 mm/hr 0.00 in0.0 mm
05:47 AM 61.2°F16.2°C 53.9°F12.2°C 77% 1.3 mph WSW2.1 kmh WSW 4.5 mph7.2 kmh 29.54 in1000.3 mb 0.00 in0.0 mm 0.00 in/hr0.0 mm/hr 0.00 in0.0 mm
05:46 AM 61.5°F16.4°C 54.3°F12.4°C 77% 1.1 mph WSW1.8 kmh WSW 4.5 mph7.2 kmh 29.54 in1000.3 mb 0.00 in0.0 mm 0.00 in/hr0.0 mm/hr 0.00 in0.0 mm
05:45 AM 61.3°F16.3°C 54.1°F12.3°C 77% 0.9 mph W1.4 kmh W 4.5 mph7.2 kmh 29.54 in1000.3 mb 0.00 in0.0 mm 0.00 in/hr0.0 mm/hr 0.00 in0.0 mm
05:44 AM 61.3°F16.3°C 54.1°F12.3°C 77% 0.9 mph WSW1.4 kmh WSW 3.8 mph6.1 kmh 29.54 in1000.3 mb 0.00 in0.0 mm 0.00 in/hr0.0 mm/hr 0.00 in0.0 mm
05:43 AM 61.3°F16.3°C 54.1°F12.3°C 77% 1.1 mph WSW1.8 kmh WSW 3.8 mph6.1 kmh 29.54 in1000.3 mb 0.00 in0.0 mm 0.00 in/hr0.0 mm/hr 0.00 in0.0 mm
05:42 AM 61.3°F16.3°C 54.1°F12.3°C 77% 1.4 mph WSW2.3 kmh WSW 3.8 mph6.1 kmh 29.54 in1000.3 mb 0.00 in0.0 mm 0.00 in/hr0.0 mm/hr 0.00 in0.0 mm
05:41 AM 61.5°F16.4°C 54.3°F12.4°C 77% 1.8 mph WSW2.9 kmh WSW 3.8 mph6.1 kmh 29.54 in1000.3 mb 0.00 in0.0 mm 0.00 in/hr0.0 mm/hr 0.00 in0.0 mm
05:40 AM 61.2°F16.2°C 53.9°F12.2°C 77% 2.1 mph WSW3.4 kmh WSW 4.5 mph7.2 kmh 29.54 in1000.3 mb 0.00 in0.0 mm 0.00 in/hr0.0 mm/hr 0.00 in0.0 mm
05:39 AM 61.3°F16.3°C 54.1°F12.3°C 77% 2.6 mph WSW4.2 kmh WSW 4.5 mph7.2 kmh 29.54 in1000.3 mb 0.00 in0.0 mm 0.00 in/hr0.0 mm/hr 0.00 in0.0 mm
05:38 AM 61.3°F16.3°C 54.1°F12.3°C 77% 2.9 mph WSW4.7 kmh WSW 4.5 mph7.2 kmh 29.54 in1000.3 mb 0.00 in0.0 mm 0.00 in/hr0.0 mm/hr 0.00 in0.0 mm
05:37 AM 61.3°F16.3°C 54.1°F12.3°C 77% 3.2 mph WSW5.1 kmh WSW 4.5 mph7.2 kmh 29.54 in1000.3 mb 0.00 in0.0 mm 0.00 in/hr0.0 mm/hr 0.00 in0.0 mm
05:36 AM 61.5°F16.4°C 54.3°F12.4°C 77% 3.4 mph WSW5.5 kmh WSW 4.5 mph7.2 kmh 29.53 in1000.0 mb 0.00 in0.0 mm 0.00 in/hr0.0 mm/hr 0.00 in0.0 mm
05:35 AM 61.3°F16.3°C 54.1°F12.3°C 77% 3.7 mph WSW6.0 kmh WSW 4.5 mph7.2 kmh 29.53 in1000.0 mb 0.00 in0.0 mm 0.00 in/hr0.0 mm/hr 0.00 in0.0 mm
05:34 AM 61.2°F16.2°C 53.9°F12.2°C 77% 3.7 mph WSW6.0 kmh WSW 4.5 mph7.2 kmh 29.53 in1000.0 mb 0.00 in0.0 mm 0.00 in/hr0.0 mm/hr 0.00 in0.0 mm
05:33 AM 61.3°F16.3°C 54.1°F12.3°C 77% 3.6 mph WSW5.8 kmh WSW 4.5 mph7.2 kmh 29.54 in1000.3 mb 0.00 in0.0 mm 0.00 in/hr0.0 mm/hr 0.00 in0.0 mm
05:32 AM 61.2°F16.2°C 53.9°F12.2°C 77% 3.5 mph WSW5.6 kmh WSW 4.5 mph7.2 kmh 29.53 in1000.0 mb 0.00 in0.0 mm 0.00 in/hr0.0 mm/hr 0.00 in0.0 mm
05:31 AM 61.0°F16.1°C 53.7°F12.1°C 77% 3.4 mph SW5.5 kmh SW 4.5 mph7.2 kmh 29.53 in1000.0 mb 0.00 in0.0 mm 0.00 in/hr0.0 mm/hr 0.00 in0.0 mm
05:30 AM 61.5°F16.4°C 54.3°F12.4°C 77% 3.2 mph SW5.1 kmh SW 4.5 mph7.2 kmh 29.53 in1000.0 mb 0.00 in0.0 mm 0.00 in/hr0.0 mm/hr 0.00 in0.0 mm
05:29 AM 61.3°F16.3°C 54.1°F12.3°C 77% 3.1 mph SW5.0 kmh SW 4.5 mph7.2 kmh 29.53 in1000.0 mb 0.00 in0.0 mm 0.00 in/hr0.0 mm/hr 0.00 in0.0 mm
05:28 AM 61.3°F16.3°C 54.1°F12.3°C 77% 3.2 mph SW5.1 kmh SW 5.4 mph8.7 kmh 29.53 in1000.0 mb 0.00 in0.0 mm 0.00 in/hr0.0 mm/hr 0.00 in0.0 mm
05:27 AM 61.3°F16.3°C 54.1°F12.3°C 77% 3.3 mph SW5.3 kmh SW 5.4 mph8.7 kmh 29.53 in1000.0 mb 0.00 in0.0 mm 0.00 in/hr0.0 mm/hr 0.00 in0.0 mm
05:26 AM 61.3°F16.3°C 54.1°F12.3°C 77% 3.3 mph WSW5.3 kmh WSW 5.4 mph8.7 kmh 29.53 in1000.0 mb 0.00 in0.0 mm 0.00 in/hr0.0 mm/hr 0.00 in0.0 mm
05:25 AM 61.3°F16.3°C 54.1°F12.3°C 77% 3.2 mph WSW5.1 kmh WSW 5.4 mph8.7 kmh 29.53 in1000.0 mb 0.00 in0.0 mm 0.00 in/hr0.0 mm/hr 0.00 in0.0 mm
05:24 AM 61.2°F16.2°C 53.9°F12.2°C 77% 3.3 mph WSW5.3 kmh WSW 6.0 mph9.7 kmh 29.54 in1000.3 mb 0.00 in0.0 mm 0.00 in/hr0.0 mm/hr 0.00 in0.0 mm
05:23 AM 61.3°F16.3°C 53.7°F12.1°C 76% 3.5 mph WSW5.6 kmh WSW 6.0 mph9.7 kmh 29.53 in1000.0 mb 0.00 in0.0 mm 0.00 in/hr0.0 mm/hr 0.00 in0.0 mm
05:22 AM 61.3°F16.3°C 53.7°F12.1°C 76% 3.8 mph SW6.1 kmh SW 6.0 mph9.7 kmh 29.53 in1000.0 mb 0.00 in0.0 mm 0.00 in/hr0.0 mm/hr 0.00 in0.0 mm
05:21 AM 61.2°F16.2°C 53.6°F12.0°C 76% 3.9 mph SW6.3 kmh SW 6.0 mph9.7 kmh 29.53 in1000.0 mb 0.00 in0.0 mm 0.00 in/hr0.0 mm/hr 0.00 in0.0 mm
05:20 AM 61.3°F16.3°C 53.7°F12.1°C 76% 3.9 mph WSW6.3 kmh WSW 6.0 mph9.7 kmh 29.54 in1000.3 mb 0.00 in0.0 mm 0.00 in/hr0.0 mm/hr 0.00 in0.0 mm
05:19 AM 61.3°F16.3°C 53.7°F12.1°C 76% 3.9 mph WSW6.3 kmh WSW 6.0 mph9.7 kmh 29.54 in1000.3 mb 0.00 in0.0 mm 0.00 in/hr0.0 mm/hr 0.00 in0.0 mm
05:18 AM 61.3°F16.3°C 53.7°F12.1°C 76% 3.7 mph WSW6.0 kmh WSW 6.0 mph9.7 kmh 29.54 in1000.3 mb 0.00 in0.0 mm 0.00 in/hr0.0 mm/hr 0.00 in0.0 mm
05:17 AM 61.3°F16.3°C 53.7°F12.1°C 76% 3.6 mph WSW5.8 kmh WSW 6.0 mph9.7 kmh 29.54 in1000.3 mb 0.00 in0.0 mm 0.00 in/hr0.0 mm/hr 0.00 in0.0 mm
05:16 AM 61.3°F16.3°C 53.7°F12.1°C 76% 3.7 mph SW6.0 kmh SW 6.0 mph9.7 kmh 29.54 in1000.3 mb 0.00 in0.0 mm 0.00 in/hr0.0 mm/hr 0.00 in0.0 mm
05:15 AM 61.3°F16.3°C 53.7°F12.1°C 76% 3.8 mph SW6.1 kmh SW 6.0 mph9.7 kmh 29.53 in1000.0 mb 0.00 in0.0 mm 0.00 in/hr0.0 mm/hr 0.00 in0.0 mm
05:14 AM 61.3°F16.3°C 53.7°F12.1°C 76% 3.8 mph SW6.1 kmh SW 6.0 mph9.7 kmh 29.53 in1000.0 mb 0.00 in0.0 mm 0.00 in/hr0.0 mm/hr 0.00 in0.0 mm
05:13 AM 61.3°F16.3°C 53.7°F12.1°C 76% 3.8 mph SW6.1 kmh SW 5.4 mph8.7 kmh 29.53 in1000.0 mb 0.00 in0.0 mm 0.00 in/hr0.0 mm/hr 0.00 in0.0 mm
05:12 AM 61.5°F16.4°C 53.9°F12.2°C 76% 3.5 mph SW5.6 kmh SW 5.4 mph8.7 kmh 29.53 in1000.0 mb 0.00 in0.0 mm 0.00 in/hr0.0 mm/hr 0.00 in0.0 mm
05:11 AM 61.3°F16.3°C 53.7°F12.1°C 76% 3.7 mph SW6.0 kmh SW 6.0 mph9.7 kmh 29.53 in1000.0 mb 0.00 in0.0 mm 0.00 in/hr0.0 mm/hr 0.00 in0.0 mm
05:10 AM 61.9°F16.6°C 54.2°F12.3°C 76% 4.0 mph SW6.4 kmh SW 6.0 mph9.7 kmh 29.53 in1000.0 mb 0.00 in0.0 mm 0.00 in/hr0.0 mm/hr 0.00 in0.0 mm
05:09 AM 61.3°F16.3°C 53.7°F12.1°C 76% 4.2 mph SW6.8 kmh SW 6.0 mph9.7 kmh 29.53 in1000.0 mb 0.00 in0.0 mm 0.00 in/hr0.0 mm/hr 0.00 in0.0 mm
05:08 AM 61.3°F16.3°C 53.7°F12.1°C 76% 4.4 mph SW7.1 kmh SW 6.0 mph9.7 kmh 29.53 in1000.0 mb 0.00 in0.0 mm 0.00 in/hr0.0 mm/hr 0.00 in0.0 mm
05:07 AM 61.7°F16.5°C 53.7°F12.1°C 75% 4.5 mph SW7.2 kmh SW 6.0 mph9.7 kmh 29.53 in1000.0 mb 0.00 in0.0 mm 0.00 in/hr0.0 mm/hr 0.00 in0.0 mm
05:06 AM 61.5°F16.4°C 53.5°F11.9°C 75% 4.6 mph SW7.4 kmh SW 6.0 mph9.7 kmh 29.53 in1000.0 mb 0.00 in0.0 mm 0.00 in/hr0.0 mm/hr 0.00 in0.0 mm
05:05 AM 61.3°F16.3°C 53.4°F11.9°C 75% 4.7 mph SW7.6 kmh SW 6.0 mph9.7 kmh 29.53 in1000.0 mb 0.00 in0.0 mm 0.00 in/hr0.0 mm/hr 0.00 in0.0 mm
05:04 AM 61.5°F16.4°C 53.5°F11.9°C 75% 4.4 mph SW7.1 kmh SW 6.0 mph9.7 kmh 29.53 in1000.0 mb 0.00 in0.0 mm 0.00 in/hr0.0 mm/hr 0.00 in0.0 mm
05:03 AM 61.5°F16.4°C 53.5°F11.9°C 75% 4.1 mph SW6.6 kmh SW 6.0 mph9.7 kmh 29.53 in1000.0 mb 0.00 in0.0 mm 0.00 in/hr0.0 mm/hr 0.00 in0.0 mm
05:02 AM 61.3°F16.3°C 53.4°F11.9°C 75% 4.3 mph SW6.9 kmh SW 6.0 mph9.7 kmh 29.53 in1000.0 mb 0.00 in0.0 mm 0.00 in/hr0.0 mm/hr 0.00 in0.0 mm
05:01 AM 61.2°F16.2°C 53.2°F11.8°C 75% 4.1 mph WSW6.6 kmh WSW 6.0 mph9.7 kmh 29.53 in1000.0 mb 0.00 in0.0 mm 0.00 in/hr0.0 mm/hr 0.00 in0.0 mm
05:00 AM 61.5°F16.4°C 53.5°F11.9°C 75% 3.9 mph WSW6.3 kmh WSW 6.0 mph9.7 kmh 29.52 in999.7 mb 0.00 in0.0 mm 0.00 in/hr0.0 mm/hr 0.00 in0.0 mm
04:59 AM 61.3°F16.3°C 53.4°F11.9°C 75% 3.8 mph WSW6.1 kmh WSW 6.0 mph9.7 kmh 29.53 in1000.0 mb 0.00 in0.0 mm 0.00 in/hr0.0 mm/hr 0.00 in0.0 mm
04:58 AM 61.7°F16.5°C 53.7°F12.1°C 75% 3.9 mph WSW6.3 kmh WSW 6.0 mph9.7 kmh 29.53 in1000.0 mb 0.00 in0.0 mm 0.00 in/hr0.0 mm/hr 0.00 in0.0 mm
04:57 AM 61.5°F16.4°C 53.5°F11.9°C 75% 3.8 mph WSW6.1 kmh WSW 6.0 mph9.7 kmh 29.52 in999.7 mb 0.00 in0.0 mm 0.00 in/hr0.0 mm/hr 0.00 in0.0 mm
04:56 AM 61.3°F16.3°C 53.4°F11.9°C 75% 3.7 mph WSW6.0 kmh WSW 6.0 mph9.7 kmh 29.52 in999.7 mb 0.00 in0.0 mm 0.00 in/hr0.0 mm/hr 0.00 in0.0 mm
04:55 AM 61.7°F16.5°C 53.7°F12.1°C 75% 3.6 mph WSW5.8 kmh WSW 4.5 mph7.2 kmh 29.52 in999.7 mb 0.00 in0.0 mm 0.00 in/hr0.0 mm/hr 0.00 in0.0 mm
04:54 AM 61.7°F16.5°C 53.7°F12.1°C 75% 3.5 mph SW5.6 kmh SW 4.5 mph7.2 kmh 29.52 in999.7 mb 0.00 in0.0 mm 0.00 in/hr0.0 mm/hr 0.00 in0.0 mm
04:53 AM 61.5°F16.4°C 53.5°F11.9°C 75% 3.5 mph SW5.6 kmh SW 4.5 mph7.2 kmh 29.52 in999.7 mb 0.00 in0.0 mm 0.00 in/hr0.0 mm/hr 0.00 in0.0 mm
04:52 AM 61.7°F16.5°C 53.7°F12.1°C 75% 3.5 mph SW5.6 kmh SW 4.5 mph7.2 kmh 29.53 in1000.0 mb 0.00 in0.0 mm 0.00 in/hr0.0 mm/hr 0.00 in0.0 mm
04:51 AM 61.7°F16.5°C 53.7°F12.1°C 75% 3.7 mph SW6.0 kmh SW 6.0 mph9.7 kmh 29.53 in1000.0 mb 0.00 in0.0 mm 0.00 in/hr0.0 mm/hr 0.00 in0.0 mm
04:50 AM 61.7°F16.5°C 53.3°F11.8°C 74% 3.9 mph WSW6.3 kmh WSW 6.0 mph9.7 kmh 29.53 in1000.0 mb 0.00 in0.0 mm 0.00 in/hr0.0 mm/hr 0.00 in0.0 mm
04:49 AM 61.5°F16.4°C 53.2°F11.8°C 74% 3.9 mph WSW6.3 kmh WSW 6.0 mph9.7 kmh 29.53 in1000.0 mb 0.00 in0.0 mm 0.00 in/hr0.0 mm/hr 0.00 in0.0 mm
04:48 AM 61.7°F16.5°C 53.3°F11.8°C 74% 3.7 mph WSW6.0 kmh WSW 6.0 mph9.7 kmh 29.53 in1000.0 mb 0.00 in0.0 mm 0.00 in/hr0.0 mm/hr 0.00 in0.0 mm
04:47 AM 61.9°F16.6°C 53.5°F11.9°C 74% 3.7 mph WSW6.0 kmh WSW 6.0 mph9.7 kmh 29.53 in1000.0 mb 0.00 in0.0 mm 0.00 in/hr0.0 mm/hr 0.00 in0.0 mm
04:46 AM 61.9°F16.6°C 53.5°F11.9°C 74% 3.7 mph WSW6.0 kmh WSW 6.0 mph9.7 kmh 29.53 in1000.0 mb 0.00 in0.0 mm 0.00 in/hr0.0 mm/hr 0.00 in0.0 mm
04:45 AM 61.9°F16.6°C 53.5°F11.9°C 74% 3.7 mph WSW6.0 kmh WSW 6.0 mph9.7 kmh 29.53 in1000.0 mb 0.00 in0.0 mm 0.00 in/hr0.0 mm/hr 0.00 in0.0 mm
04:44 AM 61.7°F16.5°C 53.3°F11.8°C 74% 3.8 mph WSW6.1 kmh WSW 6.0 mph9.7 kmh 29.53 in1000.0 mb 0.00 in0.0 mm 0.00 in/hr0.0 mm/hr 0.00 in0.0 mm
04:43 AM 61.5°F16.4°C 53.2°F11.8°C 74% 4.0 mph SW6.4 kmh SW 6.0 mph9.7 kmh 29.53 in1000.0 mb 0.00 in0.0 mm 0.00 in/hr0.0 mm/hr 0.00 in0.0 mm
04:42 AM 61.9°F16.6°C 53.5°F11.9°C 74% 4.0 mph SW6.4 kmh SW 6.0 mph9.7 kmh 29.53 in1000.0 mb 0.00 in0.0 mm 0.00 in/hr0.0 mm/hr 0.00 in0.0 mm
04:41 AM 61.7°F16.5°C 53.3°F11.8°C 74% 3.9 mph SW6.3 kmh SW 6.0 mph9.7 kmh 29.53 in1000.0 mb 0.00 in0.0 mm 0.00 in/hr0.0 mm/hr 0.00 in0.0 mm
04:40 AM 61.7°F16.5°C 53.3°F11.8°C 74% 3.8 mph SW6.1 kmh SW 5.4 mph8.7 kmh 29.53 in1000.0 mb 0.00 in0.0 mm 0.00 in/hr0.0 mm/hr 0.00 in0.0 mm
04:39 AM 61.9°F16.6°C 53.5°F11.9°C 74% 3.7 mph SW6.0 kmh SW 4.5 mph7.2 kmh 29.53 in1000.0 mb 0.00 in0.0 mm 0.00 in/hr0.0 mm/hr 0.00 in0.0 mm
04:38 AM 61.5°F16.4°C 53.2°F11.8°C 74% 3.7 mph SW6.0 kmh SW 4.5 mph7.2 kmh 29.53 in1000.0 mb 0.00 in0.0 mm 0.00 in/hr0.0 mm/hr 0.00 in0.0 mm
04:37 AM 61.7°F16.5°C 53.3°F11.8°C 74% 3.7 mph SW6.0 kmh SW 4.5 mph7.2 kmh 29.53 in1000.0 mb 0.00 in0.0 mm 0.00 in/hr0.0 mm/hr 0.00 in0.0 mm
04:36 AM 61.7°F16.5°C 53.3°F11.8°C 74% 3.5 mph SW5.6 kmh SW 4.5 mph7.2 kmh 29.53 in1000.0 mb 0.00 in0.0 mm 0.00 in/hr0.0 mm/hr 0.00 in0.0 mm
04:35 AM 61.9°F16.6°C 53.5°F11.9°C 74% 3.4 mph WSW5.5 kmh WSW 4.5 mph7.2 kmh 29.52 in999.7 mb 0.00 in0.0 mm 0.00 in/hr0.0 mm/hr 0.00 in0.0 mm
04:34 AM 61.7°F16.5°C 53.3°F11.8°C 74% 3.3 mph WSW5.3 kmh WSW 4.5 mph7.2 kmh 29.52 in999.7 mb 0.00 in0.0 mm 0.00 in/hr0.0 mm/hr 0.00 in0.0 mm
04:33 AM 61.9°F16.6°C 53.5°F11.9°C 74% 3.3 mph WSW5.3 kmh WSW 4.5 mph7.2 kmh 29.52 in999.7 mb 0.00 in0.0 mm 0.00 in/hr0.0 mm/hr 0.00 in0.0 mm
04:32 AM 61.9°F16.6°C 53.5°F11.9°C 74% 3.3 mph WSW5.3 kmh WSW 4.5 mph7.2 kmh 29.52 in999.7 mb 0.00 in0.0 mm 0.00 in/hr0.0 mm/hr 0.00 in0.0 mm
04:31 AM 61.9°F16.6°C 53.5°F11.9°C 74% 3.4 mph WSW5.5 kmh WSW 4.5 mph7.2 kmh 29.52 in999.7 mb 0.00 in0.0 mm 0.00 in/hr0.0 mm/hr 0.00 in0.0 mm
04:30 AM 61.9°F16.6°C 53.5°F11.9°C 74% 3.4 mph WSW5.5 kmh WSW 4.5 mph7.2 kmh 29.52 in999.7 mb 0.00 in0.0 mm 0.00 in/hr0.0 mm/hr 0.00 in0.0 mm
04:29 AM 61.7°F16.5°C 53.3°F11.8°C 74% 3.6 mph WSW5.8 kmh WSW 4.5 mph7.2 kmh 29.52 in999.7 mb 0.00 in0.0 mm 0.00 in/hr0.0 mm/hr 0.00 in0.0 mm
04:28 AM 61.5°F16.4°C 53.2°F11.8°C 74% 3.6 mph WSW5.8 kmh WSW 4.5 mph7.2 kmh 29.52 in999.7 mb 0.00 in0.0 mm 0.00 in/hr0.0 mm/hr 0.00 in0.0 mm
04:27 AM 62.1°F16.7°C 53.7°F12.1°C 74% 3.7 mph WSW6.0 kmh WSW 5.4 mph8.7 kmh 29.52 in999.7 mb 0.00 in0.0 mm 0.00 in/hr0.0 mm/hr 0.00 in0.0 mm
04:26 AM 61.7°F16.5°C 53.0°F11.7°C 73% 3.9 mph WSW6.3 kmh WSW 5.4 mph8.7 kmh 29.52 in999.7 mb 0.00 in0.0 mm 0.00 in/hr0.0 mm/hr 0.00 in0.0 mm
04:25 AM 61.7°F16.5°C 53.3°F11.8°C 74% 3.9 mph WSW6.3 kmh WSW 5.4 mph8.7 kmh 29.53 in1000.0 mb 0.00 in0.0 mm 0.00 in/hr0.0 mm/hr 0.00 in0.0 mm
04:24 AM 62.1°F16.7°C 53.7°F12.1°C 74% 3.9 mph WSW6.3 kmh WSW 5.4 mph8.7 kmh 29.52 in999.7 mb 0.00 in0.0 mm 0.00 in/hr0.0 mm/hr 0.00 in0.0 mm
04:23 AM 61.9°F16.6°C 53.1°F11.7°C 73% 3.7 mph WSW6.0 kmh WSW 5.4 mph8.7 kmh 29.52 in999.7 mb 0.00 in0.0 mm 0.00 in/hr0.0 mm/hr 0.00 in0.0 mm
04:22 AM 61.9°F16.6°C 53.1°F11.7°C 73% 3.7 mph WSW6.0 kmh WSW 5.4 mph8.7 kmh 29.52 in999.7 mb 0.00 in0.0 mm 0.00 in/hr0.0 mm/hr 0.00 in0.0 mm
04:21 AM 61.9°F16.6°C 53.1°F11.7°C 73% 3.7 mph WSW6.0 kmh WSW 5.4 mph8.7 kmh 29.52 in999.7 mb 0.00 in0.0 mm 0.00 in/hr0.0 mm/hr 0.00 in0.0 mm
04:20 AM 62.2°F16.8°C 53.5°F11.9°C 73% 3.7 mph WSW6.0 kmh WSW 6.0 mph9.7 kmh 29.52 in999.7 mb 0.00 in0.0 mm 0.00 in/hr0.0 mm/hr 0.00 in0.0 mm
04:19 AM 61.9°F16.6°C 53.1°F11.7°C 73% 3.8 mph WSW6.1 kmh WSW 6.0 mph9.7 kmh 29.52 in999.7 mb 0.00 in0.0 mm 0.00 in/hr0.0 mm/hr 0.00 in0.0 mm
04:18 AM 62.1°F16.7°C 53.3°F11.8°C 73% 4.0 mph WSW6.4 kmh WSW 6.0 mph9.7 kmh 29.52 in999.7 mb 0.00 in0.0 mm 0.00 in/hr0.0 mm/hr 0.00 in0.0 mm
04:17 AM 61.9°F16.6°C 53.1°F11.7°C 73% 4.0 mph WSW6.4 kmh WSW 6.0 mph9.7 kmh 29.52 in999.7 mb 0.00 in0.0 mm 0.00 in/hr0.0 mm/hr 0.00 in0.0 mm
04:16 AM 61.9°F16.6°C 53.1°F11.7°C 73% 4.0 mph WSW6.4 kmh WSW 6.0 mph9.7 kmh 29.53 in1000.0 mb 0.00 in0.0 mm 0.00 in/hr0.0 mm/hr 0.00 in0.0 mm
04:15 AM 61.9°F16.6°C 53.1°F11.7°C 73% 4.2 mph WSW6.8 kmh WSW 6.0 mph9.7 kmh 29.53 in1000.0 mb 0.00 in0.0 mm 0.00 in/hr0.0 mm/hr 0.00 in0.0 mm
04:14 AM 61.9°F16.6°C 53.1°F11.7°C 73% 4.4 mph WSW7.1 kmh WSW 6.0 mph9.7 kmh 29.53 in1000.0 mb 0.00 in0.0 mm 0.00 in/hr0.0 mm/hr 0.00 in0.0 mm
04:13 AM 62.1°F16.7°C 53.3°F11.8°C 73% 4.6 mph SW7.4 kmh SW 6.0 mph9.7 kmh 29.53 in1000.0 mb 0.00 in0.0 mm 0.00 in/hr0.0 mm/hr 0.00 in0.0 mm
04:12 AM 61.7°F16.5°C 53.0°F11.7°C 73% 4.5 mph SW7.2 kmh SW 6.0 mph9.7 kmh 29.53 in1000.0 mb 0.00 in0.0 mm 0.00 in/hr0.0 mm/hr 0.00 in0.0 mm
04:11 AM 61.7°F16.5°C 53.0°F11.7°C 73% 4.3 mph SW6.9 kmh SW 6.0 mph9.7 kmh 29.52 in999.7 mb 0.00 in0.0 mm 0.00 in/hr0.0 mm/hr 0.00 in0.0 mm
04:10 AM 62.2°F16.8°C 53.5°F11.9°C 73% 4.3 mph SW6.9 kmh SW 6.0 mph9.7 kmh 29.52 in999.7 mb 0.00 in0.0 mm 0.00 in/hr0.0 mm/hr 0.00 in0.0 mm
04:09 AM 62.1°F16.7°C 53.3°F11.8°C 73% 4.0 mph SW6.4 kmh SW 6.0 mph9.7 kmh 29.52 in999.7 mb 0.00 in0.0 mm 0.00 in/hr0.0 mm/hr 0.00 in0.0 mm
04:08 AM 62.2°F16.8°C 53.5°F11.9°C 73% 4.0 mph SW6.4 kmh SW 6.0 mph9.7 kmh 29.52 in999.7 mb 0.00 in0.0 mm 0.00 in/hr0.0 mm/hr 0.00 in0.0 mm
04:07 AM 62.1°F16.7°C 53.3°F11.8°C 73% 3.8 mph SW6.1 kmh SW 6.0 mph9.7 kmh 29.52 in999.7 mb 0.00 in0.0 mm 0.00 in/hr0.0 mm/hr 0.00 in0.0 mm
04:06 AM 62.1°F16.7°C 53.7°F12.1°C 74% 3.8 mph SW6.1 kmh SW 6.0 mph9.7 kmh 29.52 in999.7 mb 0.00 in0.0 mm 0.00 in/hr0.0 mm/hr 0.00 in0.0 mm
04:05 AM 61.5°F16.4°C 53.2°F11.8°C 74% 3.5 mph SW5.6 kmh SW 6.0 mph9.7 kmh 29.52 in999.7 mb 0.00 in0.0 mm 0.00 in/hr0.0 mm/hr 0.00 in0.0 mm
04:04 AM 62.1°F16.7°C 53.7°F12.1°C 74% 3.3 mph SW5.3 kmh SW 4.5 mph7.2 kmh 29.52 in999.7 mb 0.00 in0.0 mm 0.00 in/hr0.0 mm/hr 0.00 in0.0 mm
04:03 AM 62.1°F16.7°C 53.7°F12.1°C 74% 3.3 mph SW5.3 kmh SW 4.5 mph7.2 kmh 29.52 in999.7 mb 0.00 in0.0 mm 0.00 in/hr0.0 mm/hr 0.00 in0.0 mm
04:02 AM 61.9°F16.6°C 53.5°F11.9°C 74% 3.5 mph SW5.6 kmh SW 4.5 mph7.2 kmh 29.52 in999.7 mb 0.00 in0.0 mm 0.00 in/hr0.0 mm/hr 0.00 in0.0 mm
04:01 AM 62.1°F16.7°C 53.7°F12.1°C 74% 3.8 mph SW6.1 kmh SW 4.5 mph7.2 kmh 29.52 in999.7 mb 0.00 in0.0 mm 0.00 in/hr0.0 mm/hr 0.00 in0.0 mm
04:00 AM 62.1°F16.7°C 53.7°F12.1°C 74% 3.8 mph SW6.1 kmh SW 5.4 mph8.7 kmh 29.52 in999.7 mb 0.00 in0.0 mm 0.00 in/hr0.0 mm/hr 0.00 in0.0 mm
03:59 AM 61.7°F16.5°C 53.3°F11.8°C 74% 3.9 mph SW6.3 kmh SW 5.4 mph8.7 kmh 29.52 in999.7 mb 0.00 in0.0 mm 0.00 in/hr0.0 mm/hr 0.00 in0.0 mm
03:58 AM 61.9°F16.6°C 53.5°F11.9°C 74% 4.0 mph SW6.4 kmh SW 5.4 mph8.7 kmh 29.52 in999.7 mb 0.00 in0.0 mm 0.00 in/hr0.0 mm/hr 0.00 in0.0 mm
03:57 AM 62.1°F16.7°C 53.7°F12.1°C 74% 3.7 mph SW6.0 kmh SW 5.4 mph8.7 kmh 29.52 in999.7 mb 0.00 in0.0 mm 0.00 in/hr0.0 mm/hr 0.00 in0.0 mm
03:56 AM 61.9°F16.6°C 53.5°F11.9°C 74% 3.3 mph SW5.3 kmh SW 5.4 mph8.7 kmh 29.52 in999.7 mb 0.00 in0.0 mm 0.00 in/hr0.0 mm/hr 0.00 in0.0 mm
03:55 AM 61.9°F16.6°C 53.5°F11.9°C 74% 3.0 mph SW4.8 kmh SW 5.4 mph8.7 kmh 29.52 in999.7 mb 0.00 in0.0 mm 0.00 in/hr0.0 mm/hr 0.00 in0.0 mm
03:54 AM 61.7°F16.5°C 53.3°F11.8°C 74% 2.8 mph SW4.5 kmh SW 5.4 mph8.7 kmh 29.52 in999.7 mb 0.00 in0.0 mm 0.00 in/hr0.0 mm/hr 0.00 in0.0 mm
03:53 AM 62.1°F16.7°C 53.7°F12.1°C 74% 2.4 mph SW3.9 kmh SW 5.4 mph8.7 kmh 29.52 in999.7 mb 0.00 in0.0 mm 0.00 in/hr0.0 mm/hr 0.00 in0.0 mm
03:52 AM 62.1°F16.7°C 53.7°F12.1°C 74% 2.0 mph SW3.2 kmh SW 5.4 mph8.7 kmh 29.52 in999.7 mb 0.00 in0.0 mm 0.00 in/hr0.0 mm/hr 0.00 in0.0 mm
03:51 AM 61.3°F16.3°C 53.4°F11.9°C 75% 1.5 mph SW2.4 kmh SW 5.4 mph8.7 kmh 29.52 in999.7 mb 0.00 in0.0 mm 0.00 in/hr0.0 mm/hr 0.00 in0.0 mm
03:50 AM 61.7°F16.5°C 53.7°F12.1°C 75% 1.0 mph SW1.6 kmh SW 5.4 mph8.7 kmh 29.52 in999.7 mb 0.00 in0.0 mm 0.00 in/hr0.0 mm/hr 0.00 in0.0 mm
03:49 AM 61.9°F16.6°C 53.9°F12.2°C 75% 0.6 mph SSW1.0 kmh SSW 5.4 mph8.7 kmh 29.52 in999.7 mb 0.00 in0.0 mm 0.00 in/hr0.0 mm/hr 0.00 in0.0 mm
03:48 AM 61.5°F16.4°C 53.5°F11.9°C 75% 0.1 mph SSW0.2 kmh SSW 5.4 mph8.7 kmh 29.52 in999.7 mb 0.00 in0.0 mm 0.00 in/hr0.0 mm/hr 0.00 in0.0 mm
03:47 AM 61.5°F16.4°C 53.5°F11.9°C 75% Calm Calm -- 29.52 in999.7 mb 0.00 in0.0 mm 0.00 in/hr0.0 mm/hr 0.00 in0.0 mm
03:46 AM 61.5°F16.4°C 53.5°F11.9°C 75% Calm Calm -- 29.52 in999.7 mb 0.00 in0.0 mm 0.00 in/hr0.0 mm/hr 0.00 in0.0 mm
03:45 AM 61.5°F16.4°C 53.5°F11.9°C 75% Calm Calm -- 29.52 in999.7 mb 0.00 in0.0 mm 0.00 in/hr0.0 mm/hr 0.00 in0.0 mm
03:44 AM 61.7°F16.5°C 54.1°F12.3°C 76% Calm Calm -- 29.52 in999.7 mb 0.00 in0.0 mm 0.00 in/hr0.0 mm/hr 0.00 in0.0 mm
03:43 AM 61.5°F16.4°C 53.9°F12.2°C 76% Calm Calm -- 29.52 in999.7 mb 0.00 in0.0 mm 0.00 in/hr0.0 mm/hr 0.00 in0.0 mm
03:42 AM 61.7°F16.5°C 54.1°F12.3°C 76% Calm Calm -- 29.52 in999.7 mb 0.00 in0.0 mm 0.00 in/hr0.0 mm/hr 0.00 in0.0 mm
03:41 AM 61.3°F16.3°C 53.7°F12.1°C 76% Calm Calm -- 29.52 in999.7 mb 0.00 in0.0 mm 0.00 in/hr0.0 mm/hr 0.00 in0.0 mm
03:40 AM 61.3°F16.3°C 53.7°F12.1°C 76% Calm Calm -- 29.52 in999.7 mb 0.00 in0.0 mm 0.00 in/hr0.0 mm/hr 0.00 in0.0 mm
03:39 AM 61.5°F16.4°C 53.9°F12.2°C 76% 0.1 mph SE0.2 kmh SE 1.6 mph2.6 kmh 29.52 in999.7 mb 0.00 in0.0 mm 0.00 in/hr0.0 mm/hr 0.00 in0.0 mm
03:38 AM 61.5°F16.4°C 53.9°F12.2°C 76% 0.3 mph SE0.5 kmh SE 2.2 mph3.5 kmh 29.52 in999.7 mb 0.00 in0.0 mm 0.00 in/hr0.0 mm/hr 0.00 in0.0 mm
03:37 AM 61.7°F16.5°C 54.1°F12.3°C 76% 0.5 mph SE0.8 kmh SE 2.2 mph3.5 kmh 29.52 in999.7 mb 0.00 in0.0 mm 0.00 in/hr0.0 mm/hr 0.00 in0.0 mm
03:36 AM 61.5°F16.4°C 53.9°F12.2°C 76% 0.7 mph SE1.1 kmh SE 2.2 mph3.5 kmh 29.52 in999.7 mb 0.00 in0.0 mm 0.00 in/hr0.0 mm/hr 0.00 in0.0 mm
03:35 AM 61.5°F16.4°C 53.9°F12.2°C 76% 0.9 mph SE1.4 kmh SE 2.2 mph3.5 kmh 29.52 in999.7 mb 0.00 in0.0 mm 0.00 in/hr0.0 mm/hr 0.00 in0.0 mm
03:34 AM 61.3°F16.3°C 53.7°F12.1°C 76% 1.1 mph SE1.8 kmh SE 2.2 mph3.5 kmh 29.52 in999.7 mb 0.00 in0.0 mm 0.00 in/hr0.0 mm/hr 0.00 in0.0 mm
03:33 AM 61.5°F16.4°C 53.9°F12.2°C 76% 1.4 mph SE2.3 kmh SE 3.1 mph5.0 kmh 29.52 in999.7 mb 0.00 in0.0 mm 0.00 in/hr0.0 mm/hr 0.00 in0.0 mm
03:32 AM 61.7°F16.5°C 54.1°F12.3°C 76% 1.8 mph SSE2.9 kmh SSE 3.8 mph6.1 kmh 29.52 in999.7 mb 0.00 in0.0 mm 0.00 in/hr0.0 mm/hr 0.00 in0.0 mm
03:31 AM 61.5°F16.4°C 53.9°F12.2°C 76% 2.2 mph SSE3.5 kmh SSE 3.8 mph6.1 kmh 29.52 in999.7 mb 0.00 in0.0 mm 0.00 in/hr0.0 mm/hr 0.00 in0.0 mm
03:30 AM 61.7°F16.5°C 54.1°F12.3°C 76% 2.3 mph S3.7 kmh S 3.8 mph6.1 kmh 29.52 in999.7 mb 0.00 in0.0 mm 0.00 in/hr0.0 mm/hr 0.00 in0.0 mm
03:29 AM 61.5°F16.4°C 53.9°F12.2°C 76% 2.2 mph S3.5 kmh S 3.8 mph6.1 kmh 29.52 in999.7 mb 0.00 in0.0 mm 0.00 in/hr0.0 mm/hr 0.00 in0.0 mm
03:28 AM 61.3°F16.3°C 53.7°F12.1°C 76% 2.0 mph S3.2 kmh S 3.8 mph6.1 kmh 29.52 in999.7 mb 0.00 in0.0 mm 0.00 in/hr0.0 mm/hr 0.00 in0.0 mm
03:27 AM 61.5°F16.4°C 53.9°F12.2°C 76% 1.8 mph S2.9 kmh S 3.8 mph6.1 kmh 29.52 in999.7 mb 0.00 in0.0 mm 0.00 in/hr0.0 mm/hr 0.00 in0.0 mm
03:26 AM 61.5°F16.4°C 53.9°F12.2°C 76% 1.6 mph S2.6 kmh S 3.8 mph6.1 kmh 29.52 in999.7 mb 0.00 in0.0 mm 0.00 in/hr0.0 mm/hr 0.00 in0.0 mm
03:25 AM 61.3°F16.3°C 54.1°F12.3°C 77% 1.4 mph S2.3 kmh S 3.8 mph6.1 kmh 29.52 in999.7 mb 0.00 in0.0 mm 0.00 in/hr0.0 mm/hr 0.00 in0.0 mm
03:24 AM 61.3°F16.3°C 53.7°F12.1°C 76% 1.2 mph SSW1.9 kmh SSW 3.8 mph6.1 kmh 29.52 in999.7 mb 0.00 in0.0 mm 0.00 in/hr0.0 mm/hr 0.00 in0.0 mm
03:23 AM 61.5°F16.4°C 54.3°F12.4°C 77% 0.9 mph SSW1.4 kmh SSW 3.8 mph6.1 kmh 29.52 in999.7 mb 0.00 in0.0 mm 0.00 in/hr0.0 mm/hr 0.00 in0.0 mm
03:22 AM 61.0°F16.1°C 53.7°F12.1°C 77% 0.5 mph SW0.8 kmh SW 3.8 mph6.1 kmh 29.52 in999.7 mb 0.00 in0.0 mm 0.00 in/hr0.0 mm/hr 0.00 in0.0 mm
03:21 AM 61.3°F16.3°C 54.1°F12.3°C 77% 0.2 mph SW0.3 kmh SW 3.8 mph6.1 kmh 29.52 in999.7 mb 0.00 in0.0 mm 0.00 in/hr0.0 mm/hr 0.00 in0.0 mm
03:20 AM 61.3°F16.3°C 54.4°F12.4°C 78% Calm Calm -- 29.52 in999.7 mb 0.00 in0.0 mm 0.00 in/hr0.0 mm/hr 0.00 in0.0 mm
03:19 AM 61.5°F16.4°C 54.6°F12.6°C 78% Calm Calm -- 29.52 in999.7 mb 0.00 in0.0 mm 0.00 in/hr0.0 mm/hr 0.00 in0.0 mm
03:18 AM 61.2°F16.2°C 54.6°F12.6°C 79% Calm Calm -- 29.52 in999.7 mb 0.00 in0.0 mm 0.00 in/hr0.0 mm/hr 0.00 in0.0 mm
03:17 AM 61.2°F16.2°C 54.6°F12.6°C 79% Calm Calm -- 29.52 in999.7 mb 0.00 in0.0 mm 0.00 in/hr0.0 mm/hr 0.00 in0.0 mm
03:16 AM 61.3°F16.3°C 55.1°F12.8°C 80% Calm Calm -- 29.52 in999.7 mb 0.00 in0.0 mm 0.00 in/hr0.0 mm/hr 0.00 in0.0 mm
03:15 AM 61.3°F16.3°C 55.1°F12.8°C 80% Calm Calm -- 29.52 in999.7 mb 0.00 in0.0 mm 0.00 in/hr0.0 mm/hr 0.00 in0.0 mm
03:14 AM 61.3°F16.3°C 55.1°F12.8°C 80% Calm Calm -- 29.52 in999.7 mb 0.00 in0.0 mm 0.00 in/hr0.0 mm/hr 0.00 in0.0 mm
03:13 AM 61.2°F16.2°C 55.0°F12.8°C 80% Calm Calm -- 29.52 in999.7 mb 0.00 in0.0 mm 0.00 in/hr0.0 mm/hr 0.00 in0.0 mm
03:12 AM 61.3°F16.3°C 55.5°F13.1°C 81% Calm Calm -- 29.52 in999.7 mb 0.00 in0.0 mm 0.00 in/hr0.0 mm/hr 0.00 in0.0 mm
03:11 AM 61.3°F16.3°C 55.8°F13.2°C 82% Calm Calm -- 29.52 in999.7 mb 0.00 in0.0 mm 0.00 in/hr0.0 mm/hr 0.00 in0.0 mm
03:10 AM 61.5°F16.4°C 56.3°F13.5°C 83% 0.1 mph SE0.2 kmh SE 2.2 mph3.5 kmh 29.52 in999.7 mb 0.00 in0.0 mm 0.00 in/hr0.0 mm/hr 0.00 in0.0 mm
03:09 AM 61.3°F16.3°C 55.8°F13.2°C 82% 0.4 mph SE0.6 kmh SE 2.2 mph3.5 kmh 29.52 in999.7 mb 0.00 in0.0 mm 0.00 in/hr0.0 mm/hr 0.00 in0.0 mm
03:08 AM 61.5°F16.4°C 56.0°F13.3°C 82% 0.6 mph SE1.0 kmh SE 2.2 mph3.5 kmh 29.52 in999.7 mb 0.00 in0.0 mm 0.00 in/hr0.0 mm/hr 0.00 in0.0 mm
03:07 AM 61.3°F16.3°C 55.8°F13.2°C 82% 0.8 mph SSE1.3 kmh SSE 2.2 mph3.5 kmh 29.52 in999.7 mb 0.00 in0.0 mm 0.00 in/hr0.0 mm/hr 0.00 in0.0 mm
03:06 AM 61.3°F16.3°C 56.1°F13.4°C 83% 1.0 mph SSE1.6 kmh SSE 2.2 mph3.5 kmh 29.52 in999.7 mb 0.00 in0.0 mm 0.00 in/hr0.0 mm/hr 0.00 in0.0 mm
03:05 AM 61.5°F16.4°C 56.3°F13.5°C 83% 1.3 mph SSE2.1 kmh SSE 2.2 mph3.5 kmh 29.52 in999.7 mb 0.00 in0.0 mm 0.00 in/hr0.0 mm/hr 0.00 in0.0 mm
03:04 AM 61.3°F16.3°C 56.1°F13.4°C 83% 1.4 mph SSE2.3 kmh SSE 2.2 mph3.5 kmh 29.52 in999.7 mb 0.00 in0.0 mm 0.00 in/hr0.0 mm/hr 0.00 in0.0 mm
03:03 AM 61.2°F16.2°C 56.0°F13.3°C 83% 1.6 mph SSE2.6 kmh SSE 2.2 mph3.5 kmh 29.51 in999.3 mb 0.00 in0.0 mm 0.00 in/hr0.0 mm/hr 0.00 in0.0 mm
03:02 AM 61.2°F16.2°C 56.3°F13.5°C 84% 1.9 mph SSE3.1 kmh SSE 2.2 mph3.5 kmh 29.51 in999.3 mb 0.00 in0.0 mm 0.00 in/hr0.0 mm/hr 0.00 in0.0 mm
03:01 AM 61.0°F16.1°C 55.8°F13.2°C 83% 2.1 mph SSE3.4 kmh SSE 2.2 mph3.5 kmh 29.52 in999.7 mb 0.00 in0.0 mm 0.00 in/hr0.0 mm/hr 0.00 in0.0 mm
03:00 AM 61.3°F16.3°C 56.5°F13.6°C 84% 2.1 mph SSE3.4 kmh SSE 2.2 mph3.5 kmh 29.52 in999.7 mb 0.00 in0.0 mm 0.00 in/hr0.0 mm/hr 0.00 in0.0 mm
02:59 AM 61.3°F16.3°C 56.5°F13.6°C 84% 2.1 mph S3.4 kmh S 2.2 mph3.5 kmh 29.52 in999.7 mb 0.00 in0.0 mm 0.00 in/hr0.0 mm/hr 0.00 in0.0 mm
02:58 AM 61.2°F16.2°C 56.3°F13.5°C 84% 2.1 mph S3.4 kmh S 2.2 mph3.5 kmh 29.52 in999.7 mb 0.00 in0.0 mm 0.00 in/hr0.0 mm/hr 0.00 in0.0 mm
02:57 AM 61.3°F16.3°C 56.5°F13.6°C 84% 2.1 mph S3.4 kmh S 2.2 mph3.5 kmh 29.52 in999.7 mb 0.00 in0.0 mm 0.00 in/hr0.0 mm/hr 0.00 in0.0 mm
02:56 AM 61.3°F16.3°C 56.5°F13.6°C 84% 2.0 mph S3.2 kmh S 2.2 mph3.5 kmh 29.52 in999.7 mb 0.00 in0.0 mm 0.00 in/hr0.0 mm/hr 0.00 in0.0 mm
02:55 AM 61.3°F16.3°C 56.5°F13.6°C 84% 1.8 mph S2.9 kmh S 2.2 mph3.5 kmh 29.52 in999.7 mb 0.00 in0.0 mm 0.00 in/hr0.0 mm/hr 0.00 in0.0 mm
02:54 AM 61.5°F16.4°C 56.7°F13.7°C 84% 1.6 mph S2.6 kmh S 2.2 mph3.5 kmh 29.52 in999.7 mb 0.00 in0.0 mm 0.00 in/hr0.0 mm/hr 0.00 in0.0 mm
02:53 AM 61.5°F16.4°C 56.7°F13.7°C 84% 1.4 mph S2.3 kmh S 2.2 mph3.5 kmh 29.52 in999.7 mb 0.00 in0.0 mm 0.00 in/hr0.0 mm/hr 0.00 in0.0 mm
02:52 AM 61.2°F16.2°C 56.3°F13.5°C 84% 1.2 mph SSW1.9 kmh SSW 2.2 mph3.5 kmh 29.52 in999.7 mb 0.00 in0.0 mm 0.00 in/hr0.0 mm/hr 0.00 in0.0 mm
02:51 AM 61.3°F16.3°C 56.5°F13.6°C 84% 1.0 mph SSW1.6 kmh SSW 2.2 mph3.5 kmh 29.52 in999.7 mb 0.00 in0.0 mm 0.00 in/hr0.0 mm/hr 0.00 in0.0 mm
02:50 AM 61.2°F16.2°C 56.3°F13.5°C 84% 0.9 mph SW1.4 kmh SW 2.2 mph3.5 kmh 29.51 in999.3 mb 0.00 in0.0 mm 0.00 in/hr0.0 mm/hr 0.00 in0.0 mm
02:49 AM 61.2°F16.2°C 56.3°F13.5°C 84% 0.6 mph SW1.0 kmh SW 2.2 mph3.5 kmh 29.51 in999.3 mb 0.00 in0.0 mm 0.00 in/hr0.0 mm/hr 0.00 in0.0 mm
02:48 AM 61.3°F16.3°C 56.5°F13.6°C 84% 0.4 mph SSW0.6 kmh SSW 2.2 mph3.5 kmh 29.52 in999.7 mb 0.00 in0.0 mm 0.00 in/hr0.0 mm/hr 0.00 in0.0 mm
02:47 AM 61.0°F16.1°C 56.1°F13.4°C 84% 0.2 mph SW0.3 kmh SW 2.2 mph3.5 kmh 29.52 in999.7 mb 0.00 in0.0 mm 0.00 in/hr0.0 mm/hr 0.00 in0.0 mm
02:46 AM 61.3°F16.3°C 56.5°F13.6°C 84% Calm Calm -- 29.52 in999.7 mb 0.00 in0.0 mm 0.00 in/hr0.0 mm/hr 0.00 in0.0 mm
02:45 AM 61.2°F16.2°C 56.3°F13.5°C 84% Calm Calm -- 29.52 in999.7 mb 0.00 in0.0 mm 0.00 in/hr0.0 mm/hr 0.00 in0.0 mm
02:44 AM 61.5°F16.4°C 56.7°F13.7°C 84% Calm Calm -- 29.52 in999.7 mb 0.00 in0.0 mm 0.00 in/hr0.0 mm/hr 0.00 in0.0 mm
02:43 AM 61.2°F16.2°C 56.3°F13.5°C 84% Calm Calm -- 29.51 in999.3 mb 0.00 in0.0 mm 0.00 in/hr0.0 mm/hr 0.00 in0.0 mm
02:42 AM 61.2°F16.2°C 56.3°F13.5°C 84% Calm Calm -- 29.51 in999.3 mb 0.00 in0.0 mm 0.00 in/hr0.0 mm/hr 0.00 in0.0 mm
02:41 AM 61.2°F16.2°C 56.3°F13.5°C 84% Calm Calm -- 29.51 in999.3 mb 0.00 in0.0 mm 0.00 in/hr0.0 mm/hr 0.00 in0.0 mm
02:40 AM 61.3°F16.3°C 56.5°F13.6°C 84% Calm Calm -- 29.51 in999.3 mb 0.00 in0.0 mm 0.00 in/hr0.0 mm/hr 0.00 in0.0 mm
02:39 AM 60.6°F15.9°C 55.8°F13.2°C 84% Calm Calm -- 29.51 in999.3 mb 0.00 in0.0 mm 0.00 in/hr0.0 mm/hr 0.00 in0.0 mm
02:38 AM 61.3°F16.3°C 56.8°F13.8°C 85% Calm Calm -- 29.51 in999.3 mb 0.00 in0.0 mm 0.00 in/hr0.0 mm/hr 0.00 in0.0 mm
02:37 AM 61.5°F16.4°C 56.7°F13.7°C 84% Calm Calm -- 29.51 in999.3 mb 0.00 in0.0 mm 0.00 in/hr0.0 mm/hr 0.00 in0.0 mm
02:36 AM 61.2°F16.2°C 56.3°F13.5°C 84% Calm Calm -- 29.51 in999.3 mb 0.00 in0.0 mm 0.00 in/hr0.0 mm/hr 0.00 in0.0 mm
02:35 AM 61.2°F16.2°C 56.6°F13.7°C 85% Calm Calm -- 29.51 in999.3 mb 0.00 in0.0 mm 0.00 in/hr0.0 mm/hr 0.00 in0.0 mm
02:34 AM 61.3°F16.3°C 56.8°F13.8°C 85% Calm Calm -- 29.51 in999.3 mb 0.00 in0.0 mm 0.00 in/hr0.0 mm/hr 0.00 in0.0 mm
02:33 AM 61.3°F16.3°C 56.8°F13.8°C 85% Calm Calm -- 29.51 in999.3 mb 0.00 in0.0 mm 0.00 in/hr0.0 mm/hr 0.00 in0.0 mm
02:32 AM 61.0°F16.1°C 56.5°F13.6°C 85% Calm Calm -- 29.51 in999.3 mb 0.00 in0.0 mm 0.00 in/hr0.0 mm/hr 0.00 in0.0 mm
02:31 AM 61.2°F16.2°C 56.6°F13.7°C 85% Calm Calm -- 29.50 in999.0 mb 0.00 in0.0 mm 0.00 in/hr0.0 mm/hr 0.00 in0.0 mm
02:30 AM 60.8°F16.0°C 56.3°F13.5°C 85% Calm Calm -- 29.50 in999.0 mb 0.00 in0.0 mm 0.00 in/hr0.0 mm/hr 0.00 in0.0 mm
02:29 AM 60.8°F16.0°C 56.3°F13.5°C 85% Calm Calm -- 29.50 in999.0 mb 0.00 in0.0 mm 0.00 in/hr0.0 mm/hr 0.00 in0.0 mm
02:28 AM 61.2°F16.2°C 56.6°F13.7°C 85% Calm Calm -- 29.51 in999.3 mb 0.00 in0.0 mm 0.00 in/hr0.0 mm/hr 0.00 in0.0 mm
02:27 AM 60.8°F16.0°C 56.3°F13.5°C 85% Calm Calm -- 29.50 in999.0 mb 0.00 in0.0 mm 0.00 in/hr0.0 mm/hr 0.00 in0.0 mm
02:26 AM 60.6°F15.9°C 56.1°F13.4°C 85% Calm Calm -- 29.50 in999.0 mb 0.00 in0.0 mm 0.00 in/hr0.0 mm/hr 0.00 in0.0 mm
02:25 AM 60.8°F16.0°C 56.3°F13.5°C 85% Calm Calm -- 29.50 in999.0 mb 0.00 in0.0 mm 0.00 in/hr0.0 mm/hr 0.00 in0.0 mm
02:24 AM 61.0°F16.1°C 56.5°F13.6°C 85% Calm Calm -- 29.50 in999.0 mb 0.00 in0.0 mm 0.00 in/hr0.0 mm/hr 0.00 in0.0 mm
02:23 AM 61.0°F16.1°C 56.5°F13.6°C 85% Calm Calm -- 29.50 in999.0 mb 0.00 in0.0 mm 0.00 in/hr0.0 mm/hr 0.00 in0.0 mm
02:22 AM 60.6°F15.9°C 56.4°F13.6°C 86% Calm Calm -- 29.50 in999.0 mb 0.00 in0.0 mm 0.00 in/hr0.0 mm/hr 0.00 in0.0 mm
02:21 AM 60.6°F15.9°C 56.4°F13.6°C 86% Calm Calm -- 29.50 in999.0 mb 0.00 in0.0 mm 0.00 in/hr0.0 mm/hr 0.00 in0.0 mm
02:20 AM 61.0°F16.1°C 56.8°F13.8°C 86% Calm Calm -- 29.50 in999.0 mb 0.00 in0.0 mm 0.00 in/hr0.0 mm/hr 0.00 in0.0 mm
02:19 AM 60.6°F15.9°C 56.4°F13.6°C 86% Calm Calm -- 29.50 in999.0 mb 0.00 in0.0 mm 0.00 in/hr0.0 mm/hr 0.00 in0.0 mm
02:18 AM 60.4°F15.8°C 56.2°F13.4°C 86% Calm Calm -- 29.50 in999.0 mb 0.00 in0.0 mm 0.00 in/hr0.0 mm/hr 0.00 in0.0 mm
02:17 AM 60.8°F16.0°C 56.6°F13.7°C 86% Calm Calm -- 29.50 in999.0 mb 0.00 in0.0 mm 0.00 in/hr0.0 mm/hr 0.00 in0.0 mm
02:16 AM 60.6°F15.9°C 56.7°F13.7°C 87% Calm Calm -- 29.50 in999.0 mb 0.00 in0.0 mm 0.00 in/hr0.0 mm/hr 0.00 in0.0 mm
02:15 AM 60.4°F15.8°C 56.6°F13.7°C 87% Calm Calm -- 29.50 in999.0 mb 0.00 in0.0 mm 0.00 in/hr0.0 mm/hr 0.00 in0.0 mm
02:14 AM 60.4°F15.8°C 56.6°F13.7°C 87% Calm Calm -- 29.50 in999.0 mb 0.00 in0.0 mm 0.00 in/hr0.0 mm/hr 0.00 in0.0 mm
02:13 AM 60.3°F15.7°C 56.4°F13.6°C 87% Calm Calm -- 29.50 in999.0 mb 0.00 in0.0 mm 0.00 in/hr0.0 mm/hr 0.00 in0.0 mm
02:12 AM 60.3°F15.7°C 56.4°F13.6°C 87% Calm Calm -- 29.50 in999.0 mb 0.00 in0.0 mm 0.00 in/hr0.0 mm/hr 0.00 in0.0 mm
02:11 AM 60.1°F15.6°C 56.2°F13.4°C 87% Calm Calm -- 29.50 in999.0 mb 0.00 in0.0 mm 0.00 in/hr0.0 mm/hr 0.00 in0.0 mm
02:10 AM 59.9°F15.5°C 56.0°F13.3°C 87% Calm Calm -- 29.50 in999.0 mb 0.00 in0.0 mm 0.00 in/hr0.0 mm/hr 0.00 in0.0 mm
02:09 AM 59.9°F15.5°C 56.0°F13.3°C 87% Calm Calm -- 29.50 in999.0 mb 0.00 in0.0 mm 0.00 in/hr0.0 mm/hr 0.00 in0.0 mm
02:08 AM 59.9°F15.5°C 56.0°F13.3°C 87% Calm Calm -- 29.51 in999.3 mb 0.00 in0.0 mm 0.00 in/hr0.0 mm/hr 0.00 in0.0 mm
02:07 AM 59.9°F15.5°C 56.4°F13.6°C 88% Calm Calm -- 29.50 in999.0 mb 0.00 in0.0 mm 0.00 in/hr0.0 mm/hr 0.00 in0.0 mm
02:06 AM 59.7°F15.4°C 56.2°F13.4°C 88% Calm Calm -- 29.50 in999.0 mb 0.00 in0.0 mm 0.00 in/hr0.0 mm/hr 0.00 in0.0 mm
02:05 AM 59.7°F15.4°C 55.9°F13.3°C 87% Calm Calm -- 29.50 in999.0 mb 0.00 in0.0 mm 0.00 in/hr0.0 mm/hr 0.00 in0.0 mm
02:04 AM 59.5°F15.3°C 55.7°F13.2°C 87% Calm Calm -- 29.51 in999.3 mb 0.00 in0.0 mm 0.00 in/hr0.0 mm/hr 0.00 in0.0 mm
02:03 AM 59.7°F15.4°C 55.9°F13.3°C 87% Calm Calm -- 29.51 in999.3 mb 0.00 in0.0 mm 0.00 in/hr0.0 mm/hr 0.00 in0.0 mm
02:02 AM 59.9°F15.5°C 55.7°F13.2°C 86% Calm Calm -- 29.51 in999.3 mb 0.00 in0.0 mm 0.00 in/hr0.0 mm/hr 0.00 in0.0 mm
02:01 AM 59.5°F15.3°C 55.4°F13.0°C 86% Calm Calm -- 29.51 in999.3 mb 0.00 in0.0 mm 0.00 in/hr0.0 mm/hr 0.00 in0.0 mm
02:00 AM 59.5°F15.3°C 55.4°F13.0°C 86% Calm Calm -- 29.51 in999.3 mb 0.00 in0.0 mm 0.00 in/hr0.0 mm/hr 0.00 in0.0 mm
01:59 AM 59.7°F15.4°C 55.5°F13.1°C 86% Calm Calm -- 29.51 in999.3 mb 0.00 in0.0 mm 0.00 in/hr0.0 mm/hr 0.00 in0.0 mm
01:58 AM 59.7°F15.4°C 55.5°F13.1°C 86% Calm Calm -- 29.51 in999.3 mb 0.00 in0.0 mm 0.00 in/hr0.0 mm/hr 0.00 in0.0 mm
01:57 AM 59.7°F15.4°C 55.5°F13.1°C 86% Calm Calm -- 29.51 in999.3 mb 0.00 in0.0 mm 0.00 in/hr0.0 mm/hr 0.00 in0.0 mm
01:56 AM 59.7°F15.4°C 55.5°F13.1°C 86% Calm Calm -- 29.51 in999.3 mb 0.00 in0.0 mm 0.00 in/hr0.0 mm/hr 0.00 in0.0 mm
01:55 AM 59.7°F15.4°C 55.5°F13.1°C 86% Calm Calm -- 29.51 in999.3 mb 0.00 in0.0 mm 0.00 in/hr0.0 mm/hr 0.00 in0.0 mm
01:54 AM 59.7°F15.4°C 55.2°F12.9°C 85% Calm Calm -- 29.51 in999.3 mb 0.00 in0.0 mm 0.00 in/hr0.0 mm/hr 0.00 in0.0 mm
01:53 AM 59.7°F15.4°C 55.2°F12.9°C 85% Calm Calm -- 29.51 in999.3 mb 0.00 in0.0 mm 0.00 in/hr0.0 mm/hr 0.00 in0.0 mm
01:52 AM 59.7°F15.4°C 55.2°F12.9°C 85% Calm Calm -- 29.50 in999.0 mb 0.00 in0.0 mm 0.00 in/hr0.0 mm/hr 0.00 in0.0 mm
01:51 AM 60.1°F15.6°C 55.6°F13.1°C 85% Calm Calm -- 29.51 in999.3 mb 0.00 in0.0 mm 0.00 in/hr0.0 mm/hr 0.00 in0.0 mm
01:50 AM 59.9°F15.5°C 55.1°F12.8°C 84% Calm Calm -- 29.51 in999.3 mb 0.00 in0.0 mm 0.00 in/hr0.0 mm/hr 0.00 in0.0 mm
01:49 AM 60.1°F15.6°C 55.2°F12.9°C 84% Calm Calm -- 29.50 in999.0 mb 0.00 in0.0 mm 0.00 in/hr0.0 mm/hr 0.00 in0.0 mm
01:48 AM 60.1°F15.6°C 55.2°F12.9°C 84% Calm Calm -- 29.50 in999.0 mb 0.00 in0.0 mm 0.00 in/hr0.0 mm/hr 0.00 in0.0 mm
01:47 AM 60.3°F15.7°C 55.4°F13.0°C 84% Calm Calm -- 29.50 in999.0 mb 0.00 in0.0 mm 0.00 in/hr0.0 mm/hr 0.00 in0.0 mm
01:46 AM 60.4°F15.8°C 55.6°F13.1°C 84% Calm Calm -- 29.50 in999.0 mb 0.00 in0.0 mm 0.00 in/hr0.0 mm/hr 0.00 in0.0 mm
01:45 AM 60.4°F15.8°C 55.6°F13.1°C 84% Calm Calm -- 29.50 in999.0 mb 0.00 in0.0 mm 0.00 in/hr0.0 mm/hr 0.00 in0.0 mm
01:44 AM 60.4°F15.8°C 55.6°F13.1°C 84% Calm Calm -- 29.50 in999.0 mb 0.00 in0.0 mm 0.00 in/hr0.0 mm/hr 0.00 in0.0 mm
01:43 AM 60.3°F15.7°C 55.4°F13.0°C 84% Calm Calm -- 29.50 in999.0 mb 0.00 in0.0 mm 0.00 in/hr0.0 mm/hr 0.00 in0.0 mm
01:42 AM 60.4°F15.8°C 55.6°F13.1°C 84% Calm Calm -- 29.50 in999.0 mb 0.00 in0.0 mm 0.00 in/hr0.0 mm/hr 0.00 in0.0 mm
01:41 AM 60.4°F15.8°C 55.6°F13.1°C 84% Calm Calm -- 29.51 in999.3 mb 0.00 in0.0 mm 0.00 in/hr0.0 mm/hr 0.00 in0.0 mm
01:40 AM 60.6°F15.9°C 55.8°F13.2°C 84% Calm Calm -- 29.50 in999.0 mb 0.00 in0.0 mm 0.00 in/hr0.0 mm/hr 0.00 in0.0 mm
01:39 AM 60.4°F15.8°C 55.6°F13.1°C 84% Calm Calm -- 29.50 in999.0 mb 0.00 in0.0 mm 0.00 in/hr0.0 mm/hr 0.00 in0.0 mm
01:38 AM 60.6°F15.9°C 55.8°F13.2°C 84% Calm Calm -- 29.50 in999.0 mb 0.00 in0.0 mm 0.00 in/hr0.0 mm/hr 0.00 in0.0 mm
01:37 AM 60.6°F15.9°C 55.8°F13.2°C 84% Calm Calm -- 29.50 in999.0 mb 0.00 in0.0 mm 0.00 in/hr0.0 mm/hr 0.00 in0.0 mm
01:36 AM 60.6°F15.9°C 55.4°F13.0°C 83% Calm Calm -- 29.50 in999.0 mb 0.00 in0.0 mm 0.00 in/hr0.0 mm/hr 0.00 in0.0 mm
01:35 AM 61.0°F16.1°C 55.8°F13.2°C 83% Calm Calm -- 29.50 in999.0 mb 0.00 in0.0 mm 0.00 in/hr0.0 mm/hr 0.00 in0.0 mm
01:34 AM 60.6°F15.9°C 55.4°F13.0°C 83% Calm Calm -- 29.50 in999.0 mb 0.00 in0.0 mm 0.00 in/hr0.0 mm/hr 0.00 in0.0 mm
01:33 AM 60.8°F16.0°C 55.6°F13.1°C 83% Calm Calm -- 29.50 in999.0 mb 0.00 in0.0 mm 0.00 in/hr0.0 mm/hr 0.00 in0.0 mm
01:32 AM 60.8°F16.0°C 55.6°F13.1°C 83% Calm Calm 0.7 mph1.1 kmh 29.50 in999.0 mb 0.00 in0.0 mm 0.00 in/hr0.0 mm/hr 0.00 in0.0 mm
01:31 AM 60.6°F15.9°C 55.1°F12.8°C 82% 0.1 mph N0.2 kmh N 1.6 mph2.6 kmh 29.50 in999.0 mb 0.00 in0.0 mm 0.00 in/hr0.0 mm/hr 0.00 in0.0 mm
01:30 AM 61.2°F16.2°C 55.6°F13.1°C 82% 0.3 mph N0.5 kmh N 1.6 mph2.6 kmh 29.50 in999.0 mb 0.00 in0.0 mm 0.00 in/hr0.0 mm/hr 0.00 in0.0 mm
01:29 AM 61.0°F16.1°C 55.5°F13.1°C 82% 0.4 mph N0.6 kmh N 1.6 mph2.6 kmh 29.50 in999.0 mb 0.00 in0.0 mm 0.00 in/hr0.0 mm/hr 0.00 in0.0 mm
01:28 AM 60.8°F16.0°C 55.3°F12.9°C 82% 0.6 mph N1.0 kmh N 2.2 mph3.5 kmh 29.50 in999.0 mb 0.00 in0.0 mm 0.00 in/hr0.0 mm/hr 0.00 in0.0 mm
01:27 AM 61.0°F16.1°C 55.5°F13.1°C 82% 0.9 mph N1.4 kmh N 2.2 mph3.5 kmh 29.50 in999.0 mb 0.00 in0.0 mm 0.00 in/hr0.0 mm/hr 0.00 in0.0 mm
01:26 AM 61.2°F16.2°C 55.6°F13.1°C 82% 1.1 mph N1.8 kmh N 3.1 mph5.0 kmh 29.50 in999.0 mb 0.00 in0.0 mm 0.00 in/hr0.0 mm/hr 0.00 in0.0 mm
01:25 AM 61.5°F16.4°C 55.6°F13.1°C 81% 1.4 mph N2.3 kmh N 3.1 mph5.0 kmh 29.50 in999.0 mb 0.00 in0.0 mm 0.00 in/hr0.0 mm/hr 0.00 in0.0 mm
01:24 AM 61.3°F16.3°C 55.5°F13.1°C 81% 1.7 mph N2.7 kmh N 3.1 mph5.0 kmh 29.50 in999.0 mb 0.00 in0.0 mm 0.00 in/hr0.0 mm/hr 0.00 in0.0 mm
01:23 AM 61.5°F16.4°C 55.6°F13.1°C 81% 2.0 mph N3.2 kmh N 3.1 mph5.0 kmh 29.50 in999.0 mb 0.00 in0.0 mm 0.00 in/hr0.0 mm/hr 0.00 in0.0 mm
01:22 AM 61.5°F16.4°C 55.6°F13.1°C 81% 2.0 mph N3.2 kmh N 3.1 mph5.0 kmh 29.50 in999.0 mb 0.00 in0.0 mm 0.00 in/hr0.0 mm/hr 0.00 in0.0 mm
01:21 AM 61.3°F16.3°C 55.5°F13.1°C 81% 1.9 mph NNE3.1 kmh NNE 3.1 mph5.0 kmh 29.50 in999.0 mb 0.00 in0.0 mm 0.00 in/hr0.0 mm/hr 0.00 in0.0 mm
01:20 AM 61.7°F16.5°C 55.8°F13.2°C 81% 1.7 mph NNE2.7 kmh NNE 3.1 mph5.0 kmh 29.50 in999.0 mb 0.00 in0.0 mm 0.00 in/hr0.0 mm/hr 0.00 in0.0 mm
01:19 AM 61.7°F16.5°C 55.8°F13.2°C 81% 1.6 mph NNE2.6 kmh NNE 3.1 mph5.0 kmh 29.50 in999.0 mb 0.00 in0.0 mm 0.00 in/hr0.0 mm/hr 0.00 in0.0 mm
01:18 AM 61.5°F16.4°C 55.6°F13.1°C 81% 1.3 mph NNE2.1 kmh NNE 3.1 mph5.0 kmh 29.50 in999.0 mb 0.00 in0.0 mm 0.00 in/hr0.0 mm/hr 0.00 in0.0 mm
01:17 AM 61.5°F16.4°C 55.6°F13.1°C 81% 1.1 mph NNE1.8 kmh NNE 3.1 mph5.0 kmh 29.50 in999.0 mb 0.00 in0.0 mm 0.00 in/hr0.0 mm/hr 0.00 in0.0 mm
01:16 AM 61.7°F16.5°C 55.8°F13.2°C 81% 0.9 mph NE1.4 kmh NE 3.1 mph5.0 kmh 29.50 in999.0 mb 0.00 in0.0 mm 0.00 in/hr0.0 mm/hr 0.00 in0.0 mm
01:15 AM 61.7°F16.5°C 55.8°F13.2°C 81% 0.9 mph NE1.4 kmh NE 3.1 mph5.0 kmh 29.50 in999.0 mb 0.00 in0.0 mm 0.00 in/hr0.0 mm/hr 0.00 in0.0 mm
01:14 AM 61.7°F16.5°C 55.8°F13.2°C 81% 0.8 mph NE1.3 kmh NE 3.1 mph5.0 kmh 29.50 in999.0 mb 0.00 in0.0 mm 0.00 in/hr0.0 mm/hr 0.00 in0.0 mm
01:13 AM 61.9°F16.6°C 55.7°F13.2°C 80% 0.7 mph NNE1.1 kmh NNE 2.2 mph3.5 kmh 29.50 in999.0 mb 0.00 in0.0 mm 0.00 in/hr0.0 mm/hr 0.00 in0.0 mm
01:12 AM 61.7°F16.5°C 55.5°F13.1°C 80% 0.9 mph NNE1.4 kmh NNE 2.2 mph3.5 kmh 29.50 in999.0 mb 0.00 in0.0 mm 0.00 in/hr0.0 mm/hr 0.00 in0.0 mm
01:11 AM 61.9°F16.6°C 55.7°F13.2°C 80% 1.1 mph NNE1.8 kmh NNE 2.2 mph3.5 kmh 29.50 in999.0 mb 0.00 in0.0 mm 0.00 in/hr0.0 mm/hr 0.00 in0.0 mm
01:10 AM 61.9°F16.6°C 55.7°F13.2°C 80% 1.3 mph N2.1 kmh N 2.2 mph3.5 kmh 29.50 in999.0 mb 0.00 in0.0 mm 0.00 in/hr0.0 mm/hr 0.00 in0.0 mm
01:09 AM 62.1°F16.7°C 55.8°F13.2°C 80% 1.6 mph N2.6 kmh N 3.1 mph5.0 kmh 29.50 in999.0 mb 0.00 in0.0 mm 0.00 in/hr0.0 mm/hr 0.00 in0.0 mm
01:08 AM 61.9°F16.6°C 55.7°F13.2°C 80% 1.8 mph N2.9 kmh N 3.1 mph5.0 kmh 29.50 in999.0 mb 0.00 in0.0 mm 0.00 in/hr0.0 mm/hr 0.00 in0.0 mm
01:07 AM 62.1°F16.7°C 55.8°F13.2°C 80% 2.0 mph N3.2 kmh N 3.1 mph5.0 kmh 29.50 in999.0 mb 0.00 in0.0 mm 0.00 in/hr0.0 mm/hr 0.00 in0.0 mm
01:06 AM 62.1°F16.7°C 55.8°F13.2°C 80% 2.1 mph N3.4 kmh N 3.1 mph5.0 kmh 29.50 in999.0 mb 0.00 in0.0 mm 0.00 in/hr0.0 mm/hr 0.00 in0.0 mm
01:05 AM 61.9°F16.6°C 55.7°F13.2°C 80% 2.2 mph N3.5 kmh N 3.1 mph5.0 kmh 29.50 in999.0 mb 0.00 in0.0 mm 0.00 in/hr0.0 mm/hr 0.00 in0.0 mm
01:04 AM 62.1°F16.7°C 55.8°F13.2°C 80% 2.3 mph N3.7 kmh N 3.1 mph5.0 kmh 29.49 in998.6 mb 0.00 in0.0 mm 0.00 in/hr0.0 mm/hr 0.00 in0.0 mm
01:03 AM 62.1°F16.7°C 55.8°F13.2°C 80% 2.4 mph N3.9 kmh N 3.1 mph5.0 kmh 29.50 in999.0 mb 0.00 in0.0 mm 0.00 in/hr0.0 mm/hr 0.00 in0.0 mm
01:02 AM 61.9°F16.6°C 55.7°F13.2°C 80% 2.3 mph N3.7 kmh N 3.1 mph5.0 kmh 29.50 in999.0 mb 0.00 in0.0 mm 0.00 in/hr0.0 mm/hr 0.00 in0.0 mm
01:01 AM 61.9°F16.6°C 55.7°F13.2°C 80% 2.3 mph N3.7 kmh N 3.1 mph5.0 kmh 29.50 in999.0 mb 0.00 in0.0 mm 0.00 in/hr0.0 mm/hr 0.00 in0.0 mm
01:00 AM 62.1°F16.7°C 55.8°F13.2°C 80% 2.2 mph N3.5 kmh N 3.1 mph5.0 kmh 29.49 in998.6 mb 0.00 in0.0 mm 0.00 in/hr0.0 mm/hr 0.00 in0.0 mm
12:59 AM 61.9°F16.6°C 55.7°F13.2°C 80% 2.0 mph N3.2 kmh N 3.1 mph5.0 kmh 29.50 in999.0 mb 0.00 in0.0 mm 0.00 in/hr0.0 mm/hr 0.00 in0.0 mm
12:58 AM 61.9°F16.6°C 55.7°F13.2°C 80% 2.0 mph N3.2 kmh N 3.1 mph5.0 kmh 29.50 in999.0 mb 0.00 in0.0 mm 0.00 in/hr0.0 mm/hr 0.00 in0.0 mm
12:57 AM 61.2°F16.2°C 55.0°F12.8°C 80% 2.0 mph N3.2 kmh N 3.1 mph5.0 kmh 29.50 in999.0 mb 0.00 in0.0 mm 0.00 in/hr0.0 mm/hr 0.00 in0.0 mm
12:56 AM 62.1°F16.7°C 55.8°F13.2°C 80% 2.0 mph N3.2 kmh N 3.1 mph5.0 kmh 29.50 in999.0 mb 0.00 in0.0 mm 0.00 in/hr0.0 mm/hr 0.00 in0.0 mm
12:55 AM 62.1°F16.7°C 55.8°F13.2°C 80% 2.0 mph N3.2 kmh N 3.1 mph5.0 kmh 29.50 in999.0 mb 0.00 in0.0 mm 0.00 in/hr0.0 mm/hr 0.00 in0.0 mm
12:54 AM 62.2°F16.8°C 56.0°F13.3°C 80% 1.9 mph N3.1 kmh N 3.1 mph5.0 kmh 29.50 in999.0 mb 0.00 in0.0 mm 0.00 in/hr0.0 mm/hr 0.00 in0.0 mm
12:53 AM 62.2°F16.8°C 55.7°F13.2°C 79% 1.8 mph N2.9 kmh N 2.2 mph3.5 kmh 29.49 in998.6 mb 0.00 in0.0 mm 0.00 in/hr0.0 mm/hr 0.00 in0.0 mm
12:52 AM 62.1°F16.7°C 55.5°F13.1°C 79% 1.9 mph NNE3.1 kmh NNE 2.2 mph3.5 kmh 29.49 in998.6 mb 0.00 in0.0 mm 0.00 in/hr0.0 mm/hr 0.00 in0.0 mm
12:51 AM 62.2°F16.8°C 55.7°F13.2°C 79% 2.0 mph NNE3.2 kmh NNE 2.2 mph3.5 kmh 29.49 in998.6 mb 0.00 in0.0 mm 0.00 in/hr0.0 mm/hr 0.00 in0.0 mm
12:50 AM 62.2°F16.8°C 55.7°F13.2°C 79% 2.1 mph NNE3.4 kmh NNE 2.2 mph3.5 kmh 29.49 in998.6 mb 0.00 in0.0 mm 0.00 in/hr0.0 mm/hr 0.00 in0.0 mm
12:49 AM 62.2°F16.8°C 55.7°F13.2°C 79% 2.2 mph NNE3.5 kmh NNE 3.1 mph5.0 kmh 29.49 in998.6 mb 0.00 in0.0 mm 0.00 in/hr0.0 mm/hr 0.00 in0.0 mm
12:48 AM 62.2°F16.8°C 55.7°F13.2°C 79% 2.3 mph NNE3.7 kmh NNE 3.1 mph5.0 kmh 29.49 in998.6 mb 0.00 in0.0 mm 0.00 in/hr0.0 mm/hr 0.00 in0.0 mm
12:47 AM 62.2°F16.8°C 55.7°F13.2°C 79% 2.3 mph NE3.7 kmh NE 3.1 mph5.0 kmh 29.49 in998.6 mb 0.00 in0.0 mm 0.00 in/hr0.0 mm/hr 0.00 in0.0 mm
12:46 AM 62.4°F16.9°C 55.8°F13.2°C 79% 2.3 mph NE3.7 kmh NE 3.1 mph5.0 kmh 29.49 in998.6 mb 0.00 in0.0 mm 0.00 in/hr0.0 mm/hr 0.00 in0.0 mm
12:45 AM 62.2°F16.8°C 55.7°F13.2°C 79% 2.2 mph NE3.5 kmh NE 3.1 mph5.0 kmh 29.50 in999.0 mb 0.00 in0.0 mm 0.00 in/hr0.0 mm/hr 0.00 in0.0 mm
12:44 AM 62.2°F16.8°C 55.7°F13.2°C 79% 2.2 mph NE3.5 kmh NE 3.1 mph5.0 kmh 29.49 in998.6 mb 0.00 in0.0 mm 0.00 in/hr0.0 mm/hr 0.00 in0.0 mm
12:43 AM 62.4°F16.9°C 55.8°F13.2°C 79% 2.3 mph NE3.7 kmh NE 3.1 mph5.0 kmh 29.49 in998.6 mb 0.00 in0.0 mm 0.00 in/hr0.0 mm/hr 0.00 in0.0 mm
12:42 AM 62.2°F16.8°C 55.7°F13.2°C 79% 2.3 mph NE3.7 kmh NE 3.1 mph5.0 kmh 29.49 in998.6 mb 0.00 in0.0 mm 0.00 in/hr0.0 mm/hr 0.00 in0.0 mm
12:41 AM 62.4°F16.9°C 55.8°F13.2°C 79% 2.4 mph NE3.9 kmh NE 3.1 mph5.0 kmh 29.49 in998.6 mb 0.00 in0.0 mm 0.00 in/hr0.0 mm/hr 0.00 in0.0 mm
12:40 AM 62.4°F16.9°C 55.8°F13.2°C 79% 2.4 mph NE3.9 kmh NE 3.1 mph5.0 kmh 29.49 in998.6 mb 0.00 in0.0 mm 0.00 in/hr0.0 mm/hr 0.00 in0.0 mm
12:39 AM 62.4°F16.9°C 55.8°F13.2°C 79% 2.3 mph NNE3.7 kmh NNE 3.1 mph5.0 kmh 29.49 in998.6 mb 0.00 in0.0 mm 0.00 in/hr0.0 mm/hr 0.00 in0.0 mm
12:38 AM 62.6°F17.0°C 55.7°F13.2°C 78% 2.3 mph NNE3.7 kmh NNE 3.1 mph5.0 kmh 29.49 in998.6 mb 0.00 in0.0 mm 0.00 in/hr0.0 mm/hr 0.00 in0.0 mm
12:37 AM 62.6°F17.0°C 55.7°F13.2°C 78% 2.3 mph NE3.7 kmh NE 3.1 mph5.0 kmh 29.49 in998.6 mb 0.00 in0.0 mm 0.00 in/hr0.0 mm/hr 0.00 in0.0 mm
12:36 AM 62.6°F17.0°C 55.7°F13.2°C 78% 2.3 mph NE3.7 kmh NE 3.1 mph5.0 kmh 29.49 in998.6 mb 0.00 in0.0 mm 0.00 in/hr0.0 mm/hr 0.00 in0.0 mm
12:35 AM 62.4°F16.9°C 55.5°F13.1°C 78% 2.3 mph NE3.7 kmh NE 3.1 mph5.0 kmh 29.49 in998.6 mb 0.00 in0.0 mm 0.00 in/hr0.0 mm/hr 0.00 in0.0 mm
12:34 AM 62.6°F17.0°C 55.7°F13.2°C 78% 2.3 mph NE3.7 kmh NE 3.1 mph5.0 kmh 29.49 in998.6 mb 0.00 in0.0 mm 0.00 in/hr0.0 mm/hr 0.00 in0.0 mm
12:33 AM 62.6°F17.0°C 55.7°F13.2°C 78% 2.4 mph NNE3.9 kmh NNE 3.1 mph5.0 kmh 29.49 in998.6 mb 0.00 in0.0 mm 0.00 in/hr0.0 mm/hr 0.00 in0.0 mm
12:32 AM 62.6°F17.0°C 55.7°F13.2°C 78% 2.4 mph NNE3.9 kmh NNE 3.1 mph5.0 kmh 29.49 in998.6 mb 0.00 in0.0 mm 0.00 in/hr0.0 mm/hr 0.00 in0.0 mm
12:31 AM 62.8°F17.1°C 55.5°F13.1°C 77% 2.4 mph NNE3.9 kmh NNE 3.1 mph5.0 kmh 29.48 in998.3 mb 0.00 in0.0 mm 0.00 in/hr0.0 mm/hr 0.00 in0.0 mm
12:30 AM 62.8°F17.1°C 55.5°F13.1°C 77% 2.4 mph NNE3.9 kmh NNE 3.1 mph5.0 kmh 29.48 in998.3 mb 0.00 in0.0 mm 0.00 in/hr0.0 mm/hr 0.00 in0.0 mm
12:29 AM 62.8°F17.1°C 55.8°F13.2°C 78% 2.3 mph NNE3.7 kmh NNE 3.1 mph5.0 kmh 29.49 in998.6 mb 0.00 in0.0 mm 0.00 in/hr0.0 mm/hr 0.00 in0.0 mm
12:28 AM 63.0°F17.2°C 56.0°F13.3°C 78% 2.3 mph NNE3.7 kmh NNE 3.1 mph5.0 kmh 29.49 in998.6 mb 0.00 in0.0 mm 0.00 in/hr0.0 mm/hr 0.00 in0.0 mm
12:27 AM 62.8°F17.1°C 55.5°F13.1°C 77% 2.3 mph NNE3.7 kmh NNE 3.1 mph5.0 kmh 29.49 in998.6 mb 0.00 in0.0 mm 0.00 in/hr0.0 mm/hr 0.00 in0.0 mm
12:26 AM 63.0°F17.2°C 56.0°F13.3°C 78% 2.4 mph N3.9 kmh N 3.1 mph5.0 kmh 29.49 in998.6 mb 0.00 in0.0 mm 0.00 in/hr0.0 mm/hr 0.00 in0.0 mm
12:25 AM 62.8°F17.1°C 55.8°F13.2°C 78% 2.3 mph N3.7 kmh N 3.1 mph5.0 kmh 29.49 in998.6 mb 0.00 in0.0 mm 0.00 in/hr0.0 mm/hr 0.00 in0.0 mm
12:24 AM 62.8°F17.1°C 55.8°F13.2°C 78% 2.2 mph NNE3.5 kmh NNE 3.1 mph5.0 kmh 29.48 in998.3 mb 0.00 in0.0 mm 0.00 in/hr0.0 mm/hr 0.00 in0.0 mm
12:23 AM 62.6°F17.0°C 55.7°F13.2°C 78% 2.1 mph NNE3.4 kmh NNE 3.1 mph5.0 kmh 29.49 in998.6 mb 0.00 in0.0 mm 0.00 in/hr0.0 mm/hr 0.00 in0.0 mm
12:22 AM 62.6°F17.0°C 55.7°F13.2°C 78% 1.9 mph NNE3.1 kmh NNE 3.1 mph5.0 kmh 29.49 in998.6 mb 0.00 in0.0 mm 0.00 in/hr0.0 mm/hr 0.00 in0.0 mm
12:21 AM 62.6°F17.0°C 55.7°F13.2°C 78% 1.8 mph NE2.9 kmh NE 3.1 mph5.0 kmh 29.49 in998.6 mb 0.00 in0.0 mm 0.00 in/hr0.0 mm/hr 0.00 in0.0 mm
12:20 AM 63.0°F17.2°C 55.7°F13.2°C 77% 1.8 mph NE2.9 kmh NE 3.1 mph5.0 kmh 29.49 in998.6 mb 0.00 in0.0 mm 0.00 in/hr0.0 mm/hr 0.00 in0.0 mm
12:19 AM 62.8°F17.1°C 55.8°F13.2°C 78% 1.9 mph NE3.1 kmh NE 3.1 mph5.0 kmh 29.49 in998.6 mb 0.00 in0.0 mm 0.00 in/hr0.0 mm/hr 0.00 in0.0 mm
12:18 AM 62.8°F17.1°C 55.8°F13.2°C 78% 1.8 mph NE2.9 kmh NE 3.1 mph5.0 kmh 29.49 in998.6 mb 0.00 in0.0 mm 0.00 in/hr0.0 mm/hr 0.00 in0.0 mm
12:17 AM 62.8°F17.1°C 55.8°F13.2°C 78% 1.5 mph NE2.4 kmh NE 3.1 mph5.0 kmh 29.49 in998.6 mb 0.00 in0.0 mm 0.00 in/hr0.0 mm/hr 0.00 in0.0 mm
12:16 AM 62.8°F17.1°C 55.5°F13.1°C 77% 1.3 mph E2.1 kmh E 2.2 mph3.5 kmh 29.49 in998.6 mb 0.00 in0.0 mm 0.00 in/hr0.0 mm/hr 0.00 in0.0 mm
12:15 AM 63.0°F17.2°C 55.7°F13.2°C 77% 1.1 mph E1.8 kmh E 2.2 mph3.5 kmh 29.48 in998.3 mb 0.00 in0.0 mm 0.00 in/hr0.0 mm/hr 0.00 in0.0 mm
12:14 AM 63.0°F17.2°C 55.7°F13.2°C 77% 1.0 mph NE1.6 kmh NE 2.2 mph3.5 kmh 29.48 in998.3 mb 0.00 in0.0 mm 0.00 in/hr0.0 mm/hr 0.00 in0.0 mm
12:13 AM 63.0°F17.2°C 55.3°F12.9°C 76% 1.0 mph NNE1.6 kmh NNE 2.2 mph3.5 kmh 29.49 in998.6 mb 0.00 in0.0 mm 0.00 in/hr0.0 mm/hr 0.00 in0.0 mm
12:12 AM 62.8°F17.1°C 55.5°F13.1°C 77% 1.0 mph NNE1.6 kmh NNE 2.2 mph3.5 kmh 29.49 in998.6 mb 0.00 in0.0 mm 0.00 in/hr0.0 mm/hr 0.00 in0.0 mm
12:11 AM 63.1°F17.3°C 55.8°F13.2°C 77% 1.0 mph NNE1.6 kmh NNE 2.2 mph3.5 kmh 29.48 in998.3 mb 0.00 in0.0 mm 0.00 in/hr0.0 mm/hr 0.00 in0.0 mm
12:10 AM 63.0°F17.2°C 55.7°F13.2°C 77% 1.1 mph NNE1.8 kmh NNE 2.2 mph3.5 kmh 29.48 in998.3 mb 0.00 in0.0 mm 0.00 in/hr0.0 mm/hr 0.00 in0.0 mm
12:09 AM 63.1°F17.3°C 55.8°F13.2°C 77% 1.0 mph NNE1.6 kmh NNE 2.2 mph3.5 kmh 29.48 in998.3 mb 0.00 in0.0 mm 0.00 in/hr0.0 mm/hr 0.00 in0.0 mm
12:08 AM 63.1°F17.3°C 55.5°F13.1°C 76% 1.3 mph NNE2.1 kmh NNE 3.1 mph5.0 kmh 29.48 in998.3 mb 0.00 in0.0 mm 0.00 in/hr0.0 mm/hr 0.00 in0.0 mm
12:07 AM 63.0°F17.2°C 54.9°F12.7°C 75% 1.6 mph NNE2.6 kmh NNE 3.1 mph5.0 kmh 29.49 in998.6 mb 0.00 in0.0 mm 0.00 in/hr0.0 mm/hr 0.00 in0.0 mm
12:06 AM 63.1°F17.3°C 55.5°F13.1°C 76% 1.7 mph NNE2.7 kmh NNE 3.1 mph5.0 kmh 29.49 in998.6 mb 0.00 in0.0 mm 0.00 in/hr0.0 mm/hr 0.00 in0.0 mm
12:05 AM 63.3°F17.4°C 55.3°F12.9°C 75% 1.7 mph NNE2.7 kmh NNE 3.1 mph5.0 kmh 29.48 in998.3 mb 0.00 in0.0 mm 0.00 in/hr0.0 mm/hr 0.00 in0.0 mm
12:04 AM 63.3°F17.4°C 55.6°F13.1°C 76% 1.6 mph NNE2.6 kmh NNE 3.1 mph5.0 kmh 29.48 in998.3 mb 0.00 in0.0 mm 0.00 in/hr0.0 mm/hr 0.00 in0.0 mm
12:03 AM 63.1°F17.3°C 55.5°F13.1°C 76% 1.5 mph NNE2.4 kmh NNE 3.1 mph5.0 kmh 29.48 in998.3 mb 0.00 in0.0 mm 0.00 in/hr0.0 mm/hr 0.00 in0.0 mm
12:02 AM 63.3°F17.4°C 55.6°F13.1°C 76% 1.4 mph N2.3 kmh N 3.1 mph5.0 kmh 29.48 in998.3 mb 0.00 in0.0 mm 0.00 in/hr0.0 mm/hr 0.00 in0.0 mm
12:01 AM 63.3°F17.4°C 55.6°F13.1°C 76% 1.3 mph N2.1 kmh N 3.1 mph5.0 kmh 29.48 in998.3 mb 0.00 in0.0 mm 0.00 in/hr0.0 mm/hr 0.00 in0.0 mm
12:00 AM 63.5°F17.5°C 55.8°F13.2°C 76% 1.2 mph N1.9 kmh N 3.1 mph5.0 kmh 29.48 in998.3 mb 0.00 in0.0 mm 0.00 in/hr0.0 mm/hr 0.00 in0.0 mm